Wetterdaten: Freitag, 21.08.2020
Datum Zeit Temp. Aussen Temp. o. S. Temp +5cm Feuchte Auss Luftdruck Regen Sonnenschein Regendauer Solar Windben Empfang
21.08.2020 00:00 26,9 C 25,6 C 25,0 C 70 % 1006,5 hPa 0,0 l/m 0 min 0 min 0 W/m 0,0 km/h (0 Bft) 97,87 %
21.08.2020 00:02 26,9 C 25,6 C 25,0 C 70 % 1006,4 hPa 0,0 l/m 0 min 0 min 0 W/m 0,0 km/h (0 Bft) 93,33 %
21.08.2020 00:04 26,9 C 25,6 C 25,0 C 70 % 1006,4 hPa 0,0 l/m 0 min 0 min 0 W/m 16,1 km/h (3 Bft) 97,83 %
21.08.2020 00:08 26,9 C 25,6 C 24,4 C 70 % 1006,5 hPa 0,0 l/m 0 min 0 min 0 W/m 3,2 km/h (1 Bft) 97,89 %
21.08.2020 00:10 26,8 C 25,6 C 24,4 C 70 % 1006,6 hPa 0,0 l/m 0 min 0 min 0 W/m 0,0 km/h (0 Bft) 97,87 %
21.08.2020 00:12 26,8 C 25,0 C 24,4 C 70 % 1006,6 hPa 0,0 l/m 0 min 0 min 0 W/m 3,2 km/h (1 Bft) 97,87 %
21.08.2020 00:14 26,8 C 25,6 C 25,0 C 70 % 1006,5 hPa 0,0 l/m 0 min 0 min 0 W/m 0,0 km/h (0 Bft) 100,00 %
21.08.2020 00:16 26,8 C 25,6 C 24,4 C 70 % 1006,5 hPa 0,0 l/m 0 min 0 min 0 W/m 0,0 km/h (0 Bft) 95,65 %
21.08.2020 00:18 26,7 C 25,6 C 24,4 C 70 % 1006,4 hPa 0,0 l/m 0 min 0 min 0 W/m 6,4 km/h (2 Bft) 97,87 %
21.08.2020 00:20 26,7 C 25,6 C 25,0 C 70 % 1006,4 hPa 0,0 l/m 0 min 0 min 0 W/m 0,0 km/h (0 Bft) 95,74 %
21.08.2020 00:22 26,7 C 25,6 C 24,4 C 70 % 1006,4 hPa 0,0 l/m 0 min 0 min 0 W/m 0,0 km/h (0 Bft) 95,74 %
21.08.2020 00:24 26,7 C 25,6 C 24,4 C 70 % 1006,4 hPa 0,0 l/m 0 min 0 min 0 W/m 0,0 km/h (0 Bft) 97,87 %
21.08.2020 00:26 26,7 C 25,6 C 24,4 C 70 % 1006,5 hPa 0,0 l/m 0 min 0 min 0 W/m 0,0 km/h (0 Bft) 97,83 %
21.08.2020 00:28 26,7 C 25,0 C 24,4 C 70 % 1006,5 hPa 0,0 l/m 0 min 0 min 0 W/m 0,0 km/h (0 Bft) 97,87 %
21.08.2020 00:30 26,7 C 25,0 C 24,4 C 70 % 1006,5 hPa 0,0 l/m 0 min 0 min 0 W/m 0,0 km/h (0 Bft) 97,87 %
21.08.2020 00:32 26,6 C 25,0 C 24,4 C 69 % 1006,4 hPa 0,0 l/m 0 min 0 min 0 W/m 0,0 km/h (0 Bft) 97,87 %
21.08.2020 00:34 26,6 C 25,6 C 25,0 C 69 % 1006,4 hPa 0,0 l/m 0 min 0 min 0 W/m 3,2 km/h (1 Bft) 97,87 %
21.08.2020 00:36 26,6 C 25,0 C 24,4 C 69 % 1006,4 hPa 0,0 l/m 0 min 0 min 0 W/m 0,0 km/h (0 Bft) 97,87 %
21.08.2020 00:38 26,6 C 25,0 C 24,4 C 69 % 1006,4 hPa 0,0 l/m 0 min 0 min 0 W/m 12,9 km/h (3 Bft) 97,83 %
21.08.2020 00:40 26,6 C 25,0 C 24,4 C 69 % 1006,5 hPa 0,0 l/m 0 min 0 min 0 W/m 12,9 km/h (3 Bft) 97,87 %
21.08.2020 00:42 26,6 C 25,0 C 24,4 C 69 % 1006,4 hPa 0,0 l/m 0 min 0 min 0 W/m 0,0 km/h (0 Bft) 97,87 %
21.08.2020 00:44 26,6 C 25,0 C 24,4 C 69 % 1006,4 hPa 0,0 l/m 0 min 0 min 0 W/m 3,2 km/h (1 Bft) 97,87 %
21.08.2020 00:46 26,5 C 25,0 C 24,4 C 69 % 1006,3 hPa 0,0 l/m 0 min 0 min 0 W/m 6,4 km/h (2 Bft) 97,87 %
21.08.2020 00:48 26,5 C 25,0 C 24,4 C 70 % 1006,4 hPa 0,0 l/m 0 min 0 min 0 W/m 0,0 km/h (0 Bft) 95,74 %
21.08.2020 00:50 26,5 C 25,0 C 24,4 C 70 % 1006,4 hPa 0,0 l/m 0 min 0 min 0 W/m 0,0 km/h (0 Bft) 100,00 %
21.08.2020 00:52 26,5 C 25,0 C 24,4 C 70 % 1006,4 hPa 0,0 l/m 0 min 0 min 0 W/m 0,0 km/h (0 Bft) 96,55 %
21.08.2020 00:54 26,5 C 25,0 C 24,4 C 70 % 1006,3 hPa 0,0 l/m 0 min 0 min 0 W/m 0,0 km/h (0 Bft) 95,74 %
21.08.2020 00:56 26,4 C 25,0 C 24,4 C 70 % 1006,4 hPa 0,0 l/m 0 min 0 min 0 W/m 0,0 km/h (0 Bft) 97,87 %
21.08.2020 00:58 26,4 C 25,0 C 24,4 C 70 % 1006,4 hPa 0,0 l/m 0 min 0 min 0 W/m 0,0 km/h (0 Bft) 97,87 %
21.08.2020 01:00 26,4 C 25,0 C 24,4 C 70 % 1006,4 hPa 0,0 l/m 0 min 0 min 0 W/m 3,2 km/h (1 Bft) 97,87 %
21.08.2020 01:02 26,4 C 25,0 C 24,4 C 70 % 1006,4 hPa 0,0 l/m 0 min 0 min 0 W/m 0,0 km/h (0 Bft) 95,65 %
21.08.2020 01:04 26,4 C 25,0 C 24,4 C 70 % 1006,4 hPa 0,0 l/m 0 min 0 min 0 W/m 0,0 km/h (0 Bft) 97,87 %
21.08.2020 01:06 26,3 C 25,0 C 24,4 C 70 % 1006,4 hPa 0,0 l/m 0 min 0 min 0 W/m 3,2 km/h (1 Bft) 95,74 %
21.08.2020 01:08 26,3 C 25,0 C 24,4 C 70 % 1006,3 hPa 0,0 l/m 0 min 0 min 0 W/m 16,1 km/h (3 Bft) 97,87 %
21.08.2020 01:10 26,3 C 25,0 C 24,4 C 70 % 1006,4 hPa 0,0 l/m 0 min 0 min 0 W/m 3,2 km/h (1 Bft) 97,87 %
21.08.2020 01:12 26,3 C 25,0 C 24,4 C 70 % 1006,4 hPa 0,0 l/m 0 min 0 min 0 W/m 0,0 km/h (0 Bft) 97,83 %
21.08.2020 01:14 26,3 C 25,0 C 24,4 C 70 % 1006,4 hPa 0,0 l/m 0 min 0 min 0 W/m 0,0 km/h (0 Bft) 97,87 %
21.08.2020 01:16 26,3 C 25,0 C 24,4 C 70 % 1006,4 hPa 0,0 l/m 0 min 0 min 0 W/m 0,0 km/h (0 Bft) 100,00 %
21.08.2020 01:18 26,3 C 25,0 C 24,4 C 70 % 1006,4 hPa 0,0 l/m 0 min 0 min 0 W/m 0,0 km/h (0 Bft) 100,00 %
21.08.2020 01:20 26,3 C 25,0 C 24,4 C 70 % 1006,4 hPa 0,0 l/m 0 min 0 min 0 W/m 0,0 km/h (0 Bft) 95,74 %
21.08.2020 01:22 26,3 C 25,0 C 24,4 C 70 % 1006,4 hPa 0,0 l/m 0 min 0 min 0 W/m 3,2 km/h (1 Bft) 95,74 %
21.08.2020 01:24 26,3 C 25,0 C 24,4 C 70 % 1006,4 hPa 0,0 l/m 0 min 0 min 0 W/m 0,0 km/h (0 Bft) 97,87 %
21.08.2020 01:26 26,3 C 25,0 C 24,4 C 70 % 1006,4 hPa 0,0 l/m 0 min 0 min 0 W/m 12,9 km/h (3 Bft) 97,83 %
21.08.2020 01:28 26,3 C 25,0 C 24,4 C 70 % 1006,4 hPa 0,0 l/m 0 min 0 min 0 W/m 0,0 km/h (0 Bft) 97,87 %
21.08.2020 01:30 26,3 C 25,0 C 24,4 C 70 % 1006,4 hPa 0,0 l/m 0 min 0 min 0 W/m 19,3 km/h (3 Bft) 97,87 %
21.08.2020 01:32 26,4 C 25,6 C 24,4 C 70 % 1006,4 hPa 0,0 l/m 0 min 0 min 0 W/m 22,5 km/h (4 Bft) 97,87 %
21.08.2020 01:34 26,4 C 25,6 C 24,4 C 70 % 1006,4 hPa 0,0 l/m 0 min 0 min 0 W/m 3,2 km/h (1 Bft) 97,87 %
21.08.2020 01:36 26,4 C 25,6 C 24,4 C 70 % 1006,4 hPa 0,0 l/m 0 min 0 min 0 W/m 19,3 km/h (3 Bft) 95,65 %
21.08.2020 01:38 26,4 C 25,6 C 25,0 C 69 % 1006,4 hPa 0,0 l/m 0 min 0 min 0 W/m 19,3 km/h (3 Bft) 97,87 %
21.08.2020 01:40 26,4 C 25,6 C 25,0 C 69 % 1006,4 hPa 0,0 l/m 0 min 0 min 0 W/m 3,2 km/h (1 Bft) 97,87 %
21.08.2020 01:42 26,4 C 25,6 C 25,0 C 69 % 1006,4 hPa 0,0 l/m 0 min 0 min 0 W/m 19,3 km/h (3 Bft) 97,78 %
21.08.2020 01:44 26,4 C 25,6 C 24,4 C 69 % 1006,4 hPa 0,0 l/m 0 min 0 min 0 W/m 0,0 km/h (0 Bft) 97,87 %
21.08.2020 01:46 26,4 C 25,6 C 24,4 C 69 % 1006,5 hPa 0,0 l/m 0 min 0 min 0 W/m 0,0 km/h (0 Bft) 97,87 %
21.08.2020 01:48 26,4 C 25,6 C 24,4 C 69 % 1006,5 hPa 0,0 l/m 0 min 0 min 0 W/m 0,0 km/h (0 Bft) 97,83 %
21.08.2020 01:50 26,4 C 25,0 C 24,4 C 69 % 1006,5 hPa 0,0 l/m 0 min 0 min 0 W/m 0,0 km/h (0 Bft) 97,87 %
21.08.2020 01:52 26,5 C 25,0 C 24,4 C 69 % 1006,4 hPa 0,0 l/m 0 min 0 min 0 W/m 0,0 km/h (0 Bft) 97,87 %
21.08.2020 01:54 26,5 C 25,6 C 24,4 C 69 % 1006,4 hPa 0,0 l/m 0 min 0 min 0 W/m 0,0 km/h (0 Bft) 95,74 %
21.08.2020 01:56 26,5 C 25,0 C 24,4 C 69 % 1006,4 hPa 0,0 l/m 0 min 0 min 0 W/m 3,2 km/h (1 Bft) 95,74 %
21.08.2020 01:58 26,5 C 25,0 C 24,4 C 69 % 1006,4 hPa 0,0 l/m 0 min 0 min 0 W/m 6,4 km/h (2 Bft) 95,74 %
21.08.2020 02:00 26,4 C 25,0 C 24,4 C 69 % 1006,4 hPa 0,0 l/m 0 min 0 min 0 W/m 0,0 km/h (0 Bft) 93,48 %
21.08.2020 02:02 26,4 C 25,0 C 24,4 C 69 % 1006,4 hPa 0,0 l/m 0 min 0 min 0 W/m 0,0 km/h (0 Bft) 95,83 %
21.08.2020 02:04 26,4 C 25,0 C 24,4 C 69 % 1006,4 hPa 0,0 l/m 0 min 0 min 0 W/m 0,0 km/h (0 Bft) 93,62 %
21.08.2020 02:06 26,4 C 25,0 C 24,4 C 70 % 1006,4 hPa 0,0 l/m 0 min 0 min 0 W/m 0,0 km/h (0 Bft) 95,74 %
21.08.2020 02:08 26,4 C 25,0 C 24,4 C 70 % 1006,4 hPa 0,0 l/m 0 min 0 min 0 W/m 0,0 km/h (0 Bft) 97,87 %
21.08.2020 02:10 26,4 C 25,0 C 24,4 C 70 % 1006,5 hPa 0,0 l/m 0 min 0 min 0 W/m 0,0 km/h (0 Bft) 95,74 %
21.08.2020 02:12 26,4 C 25,0 C 24,4 C 70 % 1006,5 hPa 0,0 l/m 0 min 0 min 0 W/m 0,0 km/h (0 Bft) 95,65 %
21.08.2020 02:14 26,4 C 25,0 C 24,4 C 70 % 1006,5 hPa 0,0 l/m 0 min 0 min 0 W/m 0,0 km/h (0 Bft) 95,74 %
21.08.2020 02:16 26,4 C 25,0 C 24,4 C 70 % 1006,5 hPa 0,0 l/m 0 min 0 min 0 W/m 0,0 km/h (0 Bft) 93,62 %
21.08.2020 02:18 26,4 C 25,0 C 24,4 C 70 % 1006,4 hPa 0,0 l/m 0 min 0 min 0 W/m 0,0 km/h (0 Bft) 95,74 %
21.08.2020 02:20 26,4 C 25,0 C 24,4 C 70 % 1006,4 hPa 0,0 l/m 0 min 0 min 0 W/m 0,0 km/h (0 Bft) 97,87 %
21.08.2020 02:22 26,4 C 25,0 C 24,4 C 70 % 1006,4 hPa 0,0 l/m 0 min 0 min 0 W/m 0,0 km/h (0 Bft) 95,74 %
21.08.2020 02:24 26,3 C 25,0 C 24,4 C 70 % 1006,4 hPa 0,0 l/m 0 min 0 min 0 W/m 0,0 km/h (0 Bft) 97,83 %
21.08.2020 02:26 26,3 C 25,0 C 24,4 C 70 % 1006,4 hPa 0,0 l/m 0 min 0 min 0 W/m 0,0 km/h (0 Bft) 97,87 %
21.08.2020 02:28 26,3 C 25,0 C 24,4 C 70 % 1006,3 hPa 0,0 l/m 0 min 0 min 0 W/m 0,0 km/h (0 Bft) 95,74 %
21.08.2020 02:30 26,3 C 25,0 C 24,4 C 70 % 1006,2 hPa 0,0 l/m 0 min 0 min 0 W/m 0,0 km/h (0 Bft) 97,87 %
21.08.2020 02:32 26,3 C 25,0 C 23,9 C 70 % 1006,2 hPa 0,0 l/m 0 min 0 min 0 W/m 0,0 km/h (0 Bft) 97,87 %
21.08.2020 02:34 26,3 C 25,0 C 24,4 C 70 % 1006,2 hPa 0,0 l/m 0 min 0 min 0 W/m 0,0 km/h (0 Bft) 95,74 %
21.08.2020 02:36 26,3 C 25,0 C 23,9 C 70 % 1006,2 hPa 0,0 l/m 0 min 0 min 0 W/m 0,0 km/h (0 Bft) 97,83 %
21.08.2020 02:38 26,3 C 25,0 C 23,9 C 70 % 1006,3 hPa 0,0 l/m 0 min 0 min 0 W/m 0,0 km/h (0 Bft) 97,87 %
21.08.2020 02:40 26,2 C 25,0 C 23,9 C 70 % 1006,3 hPa 0,0 l/m 0 min 0 min 0 W/m 0,0 km/h (0 Bft) 97,87 %
21.08.2020 02:42 26,2 C 25,0 C 23,9 C 70 % 1006,3 hPa 0,0 l/m 0 min 0 min 0 W/m 0,0 km/h (0 Bft) 97,87 %
21.08.2020 02:44 26,2 C 25,0 C 23,9 C 70 % 1006,5 hPa 0,0 l/m 0 min 0 min 0 W/m 0,0 km/h (0 Bft) 100,00 %
21.08.2020 02:46 26,2 C 25,0 C 23,9 C 70 % 1006,6 hPa 0,0 l/m 0 min 0 min 0 W/m 0,0 km/h (0 Bft) 100,00 %
21.08.2020 02:48 26,2 C 23,9 C 23,9 C 70 % 1007,3 hPa 0,0 l/m 0 min 0 min 0 W/m 0,0 km/h (0 Bft) 100,00 %
21.08.2020 02:50 26,2 C 20,6 C 21,7 C 73 % 1007,5 hPa 0,2 l/m 0 min 2 min 0 W/m 0,0 km/h (0 Bft) 100,00 %
21.08.2020 02:52 26,2 C 20,0 C 20,6 C 74 % 1007,6 hPa 0,0 l/m 0 min 2 min 0 W/m 0,0 km/h (0 Bft) 100,00 %
21.08.2020 02:54 26,2 C 20,0 C 20,6 C 75 % 1007,6 hPa 0,2 l/m 0 min 2 min 0 W/m 0,0 km/h (0 Bft) 100,00 %
21.08.2020 02:56 26,1 C 20,0 C 20,0 C 76 % 1007,6 hPa 0,0 l/m 0 min 2 min 0 W/m 0,0 km/h (0 Bft) 100,00 %
21.08.2020 02:58 26,1 C 20,0 C 20,0 C 76 % 1007,5 hPa 0,0 l/m 0 min 2 min 0 W/m 0,0 km/h (0 Bft) 100,00 %
21.08.2020 03:00 26,0 C 20,6 C 20,0 C 75 % 1007,5 hPa 0,0 l/m 0 min 2 min 0 W/m 12,9 km/h (3 Bft) 100,00 %
21.08.2020 03:02 25,9 C 20,0 C 20,0 C 77 % 1007,4 hPa 0,2 l/m 0 min 2 min 0 W/m 6,4 km/h (2 Bft) 100,00 %
21.08.2020 03:04 25,8 C 20,0 C 20,0 C 77 % 1007,3 hPa 0,0 l/m 0 min 2 min 0 W/m 3,2 km/h (1 Bft) 97,87 %
21.08.2020 03:06 25,7 C 20,0 C 20,0 C 77 % 1007,2 hPa 0,0 l/m 0 min 2 min 0 W/m 0,0 km/h (0 Bft) 100,00 %
21.08.2020 03:08 25,6 C 20,0 C 20,0 C 77 % 1007,0 hPa 0,0 l/m 0 min 2 min 0 W/m 0,0 km/h (0 Bft) 97,87 %
21.08.2020 03:10 25,4 C 20,0 C 20,0 C 77 % 1006,8 hPa 0,0 l/m 0 min 0 min 0 W/m 0,0 km/h (0 Bft) 100,00 %
21.08.2020 03:12 25,4 C 20,0 C 20,0 C 78 % 1006,4 hPa 0,0 l/m 0 min 0 min 0 W/m 0,0 km/h (0 Bft) 95,74 %
21.08.2020 03:14 25,2 C 20,0 C 20,0 C 78 % 1006,2 hPa 0,0 l/m 0 min 0 min 0 W/m 0,0 km/h (0 Bft) 100,00 %
21.08.2020 03:16 25,2 C 20,0 C 20,0 C 79 % 1006,3 hPa 0,0 l/m 0 min 0 min 0 W/m 0,0 km/h (0 Bft) 100,00 %
21.08.2020 03:18 25,1 C 20,6 C 19,4 C 79 % 1006,4 hPa 0,0 l/m 0 min 0 min 0 W/m 0,0 km/h (0 Bft) 100,00 %
21.08.2020 03:20 25,0 C 20,6 C 19,4 C 79 % 1006,6 hPa 0,0 l/m 0 min 0 min 0 W/m 0,0 km/h (0 Bft) 97,87 %
21.08.2020 03:22 24,8 C 20,6 C 19,4 C 79 % 1006,8 hPa 0,0 l/m 0 min 0 min 0 W/m 0,0 km/h (0 Bft) 100,00 %
21.08.2020 03:24 24,8 C 20,6 C 19,4 C 79 % 1007,0 hPa 0,0 l/m 0 min 2 min 0 W/m 0,0 km/h (0 Bft) 100,00 %
21.08.2020 03:26 24,7 C 20,0 C 19,4 C 80 % 1007,0 hPa 0,0 l/m 0 min 2 min 0 W/m 0,0 km/h (0 Bft) 100,00 %
21.08.2020 03:28 24,6 C 20,0 C 19,4 C 80 % 1007,0 hPa 0,0 l/m 0 min 2 min 0 W/m 0,0 km/h (0 Bft) 95,74 %
21.08.2020 03:30 24,4 C 20,0 C 19,4 C 80 % 1006,8 hPa 0,0 l/m 0 min 2 min 0 W/m 25,7 km/h (4 Bft) 97,87 %
21.08.2020 03:32 24,2 C 19,4 C 19,4 C 80 % 1006,4 hPa 0,2 l/m 0 min 2 min 0 W/m 35,4 km/h (5 Bft) 97,87 %
21.08.2020 03:34 24,1 C 19,4 C 19,4 C 81 % 1005,9 hPa 0,0 l/m 0 min 2 min 0 W/m 19,3 km/h (3 Bft) 95,74 %
21.08.2020 03:36 23,9 C 19,4 C 19,4 C 81 % 1005,6 hPa 0,0 l/m 0 min 2 min 0 W/m 25,7 km/h (4 Bft) 97,87 %
21.08.2020 03:38 23,8 C 20,0 C 19,4 C 81 % 1005,8 hPa 0,0 l/m 0 min 2 min 0 W/m 19,3 km/h (3 Bft) 97,87 %
21.08.2020 03:40 23,7 C 20,0 C 19,4 C 81 % 1005,9 hPa 0,0 l/m 0 min 0 min 0 W/m 16,1 km/h (3 Bft) 97,87 %
21.08.2020 03:42 23,6 C 20,0 C 19,4 C 82 % 1005,8 hPa 0,0 l/m 0 min 0 min 0 W/m 12,9 km/h (3 Bft) 97,87 %
21.08.2020 03:44 23,6 C 20,0 C 19,4 C 82 % 1005,7 hPa 0,0 l/m 0 min 0 min 0 W/m 0,0 km/h (0 Bft) 97,30 %
21.08.2020 03:46 23,6 C 20,0 C 19,4 C 83 % 1005,8 hPa 0,0 l/m 0 min 0 min 0 W/m 0,0 km/h (0 Bft) 98,04 %
21.08.2020 03:48 23,5 C 20,0 C 19,4 C 83 % 1005,9 hPa 0,0 l/m 0 min 0 min 0 W/m 0,0 km/h (0 Bft) 97,78 %
21.08.2020 03:50 23,5 C 20,0 C 19,4 C 83 % 1006,0 hPa 0,0 l/m 0 min 0 min 0 W/m 0,0 km/h (0 Bft) 95,74 %
21.08.2020 03:52 23,4 C 20,0 C 19,4 C 83 % 1006,0 hPa 0,0 l/m 0 min 0 min 0 W/m 0,0 km/h (0 Bft) 93,62 %
21.08.2020 03:54 23,4 C 20,0 C 19,4 C 84 % 1005,9 hPa 0,0 l/m 0 min 0 min 0 W/m 0,0 km/h (0 Bft) 97,87 %
21.08.2020 03:56 23,4 C 20,0 C 19,4 C 84 % 1005,9 hPa 0,0 l/m 0 min 0 min 0 W/m 0,0 km/h (0 Bft) 95,74 %
21.08.2020 03:58 23,4 C 20,0 C 19,4 C 84 % 1005,9 hPa 0,0 l/m 0 min 0 min 0 W/m 0,0 km/h (0 Bft) 95,65 %
21.08.2020 04:00 23,3 C 20,0 C 19,4 C 84 % 1006,0 hPa 0,0 l/m 0 min 0 min 0 W/m 0,0 km/h (0 Bft) 97,87 %
21.08.2020 04:02 23,3 C 20,0 C 19,4 C 84 % 1006,0 hPa 0,0 l/m 0 min 0 min 0 W/m 0,0 km/h (0 Bft) 96,88 %
21.08.2020 04:04 23,3 C 20,0 C 19,4 C 84 % 1006,0 hPa 0,0 l/m 0 min 0 min 0 W/m 0,0 km/h (0 Bft) 97,87 %
21.08.2020 04:06 23,2 C 20,0 C 19,4 C 84 % 1006,0 hPa 0,0 l/m 0 min 0 min 0 W/m 0,0 km/h (0 Bft) 95,74 %
21.08.2020 04:08 23,2 C 20,0 C 19,4 C 85 % 1006,0 hPa 0,0 l/m 0 min 0 min 0 W/m 0,0 km/h (0 Bft) 97,87 %
21.08.2020 04:10 23,2 C 20,0 C 19,4 C 85 % 1006,0 hPa 0,0 l/m 0 min 0 min 0 W/m 0,0 km/h (0 Bft) 97,83 %
21.08.2020 04:12 23,2 C 20,0 C 19,4 C 85 % 1006,0 hPa 0,0 l/m 0 min 0 min 0 W/m 0,0 km/h (0 Bft) 97,87 %
21.08.2020 04:14 23,1 C 20,0 C 19,4 C 85 % 1006,0 hPa 0,0 l/m 0 min 0 min 0 W/m 0,0 km/h (0 Bft) 95,74 %
21.08.2020 04:16 23,1 C 20,0 C 19,4 C 85 % 1006,0 hPa 0,0 l/m 0 min 0 min 0 W/m 0,0 km/h (0 Bft) 95,74 %
21.08.2020 04:18 23,1 C 20,0 C 19,4 C 85 % 1006,1 hPa 0,0 l/m 0 min 0 min 0 W/m 0,0 km/h (0 Bft) 97,87 %
21.08.2020 04:20 23,1 C 20,0 C 19,4 C 85 % 1006,1 hPa 0,0 l/m 0 min 0 min 0 W/m 0,0 km/h (0 Bft) 95,74 %
21.08.2020 04:22 23,1 C 20,0 C 19,4 C 86 % 1006,2 hPa 0,0 l/m 0 min 0 min 0 W/m 0,0 km/h (0 Bft) 95,65 %
21.08.2020 04:24 23,0 C 20,0 C 19,4 C 86 % 1006,1 hPa 0,0 l/m 0 min 0 min 0 W/m 0,0 km/h (0 Bft) 89,36 %
21.08.2020 04:27 22,9 C 20,0 C 19,4 C 86 % 1006,2 hPa 0,0 l/m 0 min 0 min 0 W/m 0,0 km/h (0 Bft) 94,29 %
21.08.2020 04:28 22,9 C 20,0 C 19,4 C 86 % 1006,2 hPa 0,0 l/m 0 min 0 min 0 W/m 0,0 km/h (0 Bft) 95,83 %
21.08.2020 04:30 22,9 C 20,0 C 19,4 C 86 % 1006,2 hPa 0,0 l/m 0 min 0 min 0 W/m 0,0 km/h (0 Bft) 95,74 %
21.08.2020 04:32 22,9 C 20,0 C 19,4 C 86 % 1006,2 hPa 0,0 l/m 0 min 0 min 0 W/m 0,0 km/h (0 Bft) 98,08 %
21.08.2020 04:34 22,9 C 20,0 C 19,4 C 87 % 1006,2 hPa 0,0 l/m 0 min 0 min 0 W/m 0,0 km/h (0 Bft) 97,87 %
21.08.2020 04:36 22,8 C 20,0 C 19,4 C 87 % 1006,2 hPa 0,0 l/m 0 min 0 min 0 W/m 0,0 km/h (0 Bft) 97,87 %
21.08.2020 04:38 22,8 C 20,0 C 19,4 C 87 % 1006,2 hPa 0,0 l/m 0 min 0 min 0 W/m 0,0 km/h (0 Bft) 93,62 %
21.08.2020 04:40 22,8 C 20,0 C 19,4 C 87 % 1006,2 hPa 0,0 l/m 0 min 0 min 0 W/m 0,0 km/h (0 Bft) 97,87 %
21.08.2020 04:42 22,8 C 20,0 C 19,4 C 87 % 1006,2 hPa 0,0 l/m 0 min 0 min 0 W/m 0,0 km/h (0 Bft) 97,87 %
21.08.2020 04:44 22,7 C 20,0 C 19,4 C 87 % 1006,2 hPa 0,0 l/m 0 min 0 min 0 W/m 0,0 km/h (0 Bft) 95,65 %
21.08.2020 04:46 22,7 C 20,0 C 19,4 C 87 % 1006,2 hPa 0,0 l/m 0 min 0 min 0 W/m 0,0 km/h (0 Bft) 95,83 %
21.08.2020 04:48 22,7 C 20,0 C 19,4 C 88 % 1006,2 hPa 0,0 l/m 0 min 0 min 0 W/m 0,0 km/h (0 Bft) 91,49 %
21.08.2020 04:50 22,7 C 20,0 C 19,4 C 88 % 1006,2 hPa 0,0 l/m 0 min 0 min 0 W/m 0,0 km/h (0 Bft) 95,74 %
21.08.2020 04:52 22,7 C 20,0 C 19,4 C 88 % 1006,1 hPa 0,0 l/m 0 min 0 min 0 W/m 0,0 km/h (0 Bft) 93,62 %
21.08.2020 04:54 22,6 C 20,0 C 19,4 C 88 % 1006,0 hPa 0,0 l/m 0 min 0 min 0 W/m 0,0 km/h (0 Bft) 95,65 %
21.08.2020 04:56 22,6 C 20,0 C 19,4 C 88 % 1006,0 hPa 0,0 l/m 0 min 0 min 0 W/m 0,0 km/h (0 Bft) 95,74 %
21.08.2020 04:58 22,6 C 20,0 C 19,4 C 88 % 1005,9 hPa 0,0 l/m 0 min 0 min 0 W/m 0,0 km/h (0 Bft) 93,62 %
21.08.2020 05:00 22,6 C 20,0 C 19,4 C 88 % 1005,8 hPa 0,0 l/m 0 min 0 min 0 W/m 0,0 km/h (0 Bft) 95,74 %
21.08.2020 05:02 22,5 C 20,0 C 19,4 C 88 % 1005,9 hPa 0,0 l/m 0 min 0 min 0 W/m 0,0 km/h (0 Bft) 95,74 %
21.08.2020 05:04 22,5 C 20,0 C 19,4 C 88 % 1006,0 hPa 0,0 l/m 0 min 0 min 0 W/m 0,0 km/h (0 Bft) 93,62 %
21.08.2020 05:06 22,5 C 20,0 C 19,4 C 88 % 1006,0 hPa 0,0 l/m 0 min 0 min 0 W/m 0,0 km/h (0 Bft) 95,65 %
21.08.2020 05:08 22,4 C 20,0 C 19,4 C 88 % 1006,0 hPa 0,0 l/m 0 min 0 min 0 W/m 0,0 km/h (0 Bft) 93,62 %
21.08.2020 05:10 22,4 C 20,0 C 19,4 C 88 % 1006,1 hPa 0,0 l/m 0 min 0 min 0 W/m 0,0 km/h (0 Bft) 95,74 %
21.08.2020 05:12 22,4 C 20,0 C 19,4 C 88 % 1006,1 hPa 0,0 l/m 0 min 0 min 0 W/m 0,0 km/h (0 Bft) 95,74 %
21.08.2020 05:14 22,4 C 20,0 C 19,4 C 88 % 1006,2 hPa 0,0 l/m 0 min 0 min 0 W/m 0,0 km/h (0 Bft) 95,74 %
21.08.2020 05:16 22,4 C 20,0 C 19,4 C 89 % 1006,1 hPa 0,0 l/m 0 min 0 min 0 W/m 0,0 km/h (0 Bft) 97,87 %
21.08.2020 05:18 22,4 C 20,0 C 19,4 C 89 % 1006,2 hPa 0,0 l/m 0 min 0 min 0 W/m 0,0 km/h (0 Bft) 95,65 %
21.08.2020 05:20 22,4 C 20,6 C 19,4 C 89 % 1006,2 hPa 0,0 l/m 0 min 0 min 0 W/m 0,0 km/h (0 Bft) 95,74 %
21.08.2020 05:22 22,4 C 20,6 C 20,0 C 90 % 1006,3 hPa 0,0 l/m 0 min 0 min 0 W/m 0,0 km/h (0 Bft) 97,87 %
21.08.2020 05:24 22,4 C 20,6 C 20,0 C 90 % 1006,2 hPa 0,0 l/m 0 min 0 min 0 W/m 0,0 km/h (0 Bft) 97,87 %
21.08.2020 05:26 22,4 C 20,0 C 20,0 C 90 % 1005,7 hPa 0,2 l/m 0 min 2 min 0 W/m 0,0 km/h (0 Bft) 95,74 %
21.08.2020 05:28 22,3 C 20,0 C 20,0 C 90 % 1005,6 hPa 0,2 l/m 0 min 2 min 0 W/m 0,0 km/h (0 Bft) 97,87 %
21.08.2020 05:30 22,3 C 20,0 C 20,0 C 90 % 1005,5 hPa 0,0 l/m 0 min 2 min 0 W/m 0,0 km/h (0 Bft) 100,00 %
21.08.2020 05:32 22,3 C 20,0 C 20,0 C 91 % 1005,4 hPa 0,0 l/m 0 min 0 min 0 W/m 0,0 km/h (0 Bft) 100,00 %
21.08.2020 05:34 22,3 C 20,0 C 20,0 C 91 % 1005,4 hPa 0,0 l/m 0 min 0 min 0 W/m 0,0 km/h (0 Bft) 100,00 %
21.08.2020 05:36 22,3 C 19,4 C 20,0 C 91 % 1005,2 hPa 0,0 l/m 0 min 0 min 0 W/m 0,0 km/h (0 Bft) 97,87 %
21.08.2020 05:38 22,3 C 19,4 C 20,0 C 91 % 1005,0 hPa 0,0 l/m 0 min 0 min 0 W/m 0,0 km/h (0 Bft) 100,00 %
21.08.2020 05:40 22,3 C 19,4 C 20,0 C 91 % 1004,9 hPa 0,0 l/m 0 min 0 min 0 W/m 0,0 km/h (0 Bft) 97,87 %
21.08.2020 05:42 22,3 C 20,0 C 20,0 C 92 % 1004,9 hPa 0,0 l/m 0 min 0 min 0 W/m 0,0 km/h (0 Bft) 100,00 %
21.08.2020 05:44 22,3 C 20,0 C 20,0 C 92 % 1004,9 hPa 0,0 l/m 0 min 0 min 0 W/m 0,0 km/h (0 Bft) 100,00 %
21.08.2020 05:46 22,2 C 20,0 C 20,0 C 92 % 1004,9 hPa 0,0 l/m 0 min 0 min 0 W/m 0,0 km/h (0 Bft) 100,00 %
21.08.2020 05:48 22,2 C 20,0 C 19,4 C 92 % 1005,0 hPa 0,0 l/m 0 min 0 min 0 W/m 3,2 km/h (1 Bft) 100,00 %
21.08.2020 05:50 22,2 C 20,0 C 19,4 C 92 % 1005,0 hPa 0,0 l/m 0 min 0 min 0 W/m 3,2 km/h (1 Bft) 97,87 %
21.08.2020 05:52 22,2 C 20,0 C 19,4 C 92 % 1005,0 hPa 0,0 l/m 0 min 0 min 0 W/m 0,0 km/h (0 Bft) 100,00 %
21.08.2020 05:54 22,1 C 20,0 C 19,4 C 92 % 1005,0 hPa 0,0 l/m 0 min 0 min 0 W/m 0,0 km/h (0 Bft) 100,00 %
21.08.2020 05:56 22,1 C 20,0 C 19,4 C 92 % 1005,1 hPa 0,0 l/m 0 min 0 min 0 W/m 0,0 km/h (0 Bft) 100,00 %
21.08.2020 05:58 22,1 C 20,0 C 19,4 C 92 % 1005,2 hPa 0,0 l/m 0 min 0 min 0 W/m 0,0 km/h (0 Bft) 100,00 %
21.08.2020 06:00 22,1 C 20,6 C 19,4 C 92 % 1005,3 hPa 0,0 l/m 0 min 0 min 0 W/m 0,0 km/h (0 Bft) 100,00 %
21.08.2020 06:02 22,0 C 20,6 C 19,4 C 92 % 1005,3 hPa 0,0 l/m 0 min 0 min 0 W/m 0,0 km/h (0 Bft) 100,00 %
21.08.2020 06:04 22,0 C 20,6 C 19,4 C 92 % 1005,4 hPa 0,0 l/m 0 min 0 min 0 W/m 0,0 km/h (0 Bft) 100,00 %
21.08.2020 06:08 22,0 C 20,6 C 19,4 C 92 % 1005,5 hPa 0,0 l/m 0 min 0 min 0 W/m 3,2 km/h (1 Bft) 100,00 %
21.08.2020 06:10 22,0 C 20,6 C 19,4 C 92 % 1005,5 hPa 0,0 l/m 0 min 0 min 0 W/m 0,0 km/h (0 Bft) 100,00 %
21.08.2020 06:12 22,0 C 20,6 C 19,4 C 92 % 1005,6 hPa 0,0 l/m 0 min 0 min 0 W/m 3,2 km/h (1 Bft) 100,00 %
21.08.2020 06:14 22,0 C 20,6 C 19,4 C 92 % 1005,6 hPa 0,0 l/m 0 min 0 min 0 W/m 3,2 km/h (1 Bft) 100,00 %
21.08.2020 06:16 22,1 C 20,6 C 19,4 C 92 % 1005,6 hPa 0,0 l/m 0 min 0 min 0 W/m 0,0 km/h (0 Bft) 97,83 %
21.08.2020 06:18 22,1 C 20,6 C 19,4 C 92 % 1005,6 hPa 0,0 l/m 0 min 0 min 0 W/m 0,0 km/h (0 Bft) 100,00 %
21.08.2020 06:20 22,1 C 20,6 C 19,4 C 92 % 1005,6 hPa 0,0 l/m 0 min 0 min 0 W/m 0,0 km/h (0 Bft) 97,87 %
21.08.2020 06:22 22,1 C 20,6 C 19,4 C 92 % 1005,6 hPa 0,0 l/m 0 min 0 min 0 W/m 0,0 km/h (0 Bft) 100,00 %
21.08.2020 06:24 22,1 C 20,6 C 19,4 C 92 % 1005,6 hPa 0,0 l/m 0 min 0 min 0 W/m 0,0 km/h (0 Bft) 100,00 %
21.08.2020 06:26 22,1 C 20,6 C 19,4 C 92 % 1005,7 hPa 0,0 l/m 0 min 0 min 0 W/m 0,0 km/h (0 Bft) 100,00 %
21.08.2020 06:28 22,1 C 20,6 C 19,4 C 92 % 1005,6 hPa 0,0 l/m 0 min 0 min 0 W/m 0,0 km/h (0 Bft) 100,00 %
21.08.2020 06:30 22,2 C 20,6 C 19,4 C 92 % 1005,8 hPa 0,0 l/m 0 min 0 min 0 W/m 0,0 km/h (0 Bft) 100,00 %
21.08.2020 06:32 22,2 C 20,6 C 19,4 C 92 % 1005,8 hPa 0,0 l/m 0 min 0 min 0 W/m 0,0 km/h (0 Bft) 100,00 %
21.08.2020 06:34 22,2 C 20,6 C 19,4 C 92 % 1005,9 hPa 0,0 l/m 0 min 0 min 0 W/m 0,0 km/h (0 Bft) 100,00 %
21.08.2020 06:36 22,2 C 20,6 C 19,4 C 92 % 1006,0 hPa 0,0 l/m 0 min 0 min 0 W/m 0,0 km/h (0 Bft) 100,00 %
21.08.2020 06:38 22,2 C 20,6 C 19,4 C 91 % 1006,0 hPa 0,0 l/m 0 min 0 min 0 W/m 0,0 km/h (0 Bft) 100,00 %
21.08.2020 06:40 22,2 C 20,6 C 19,4 C 91 % 1006,2 hPa 0,0 l/m 0 min 0 min 0 W/m 0,0 km/h (0 Bft) 100,00 %
21.08.2020 06:42 22,3 C 20,6 C 19,4 C 91 % 1006,5 hPa 0,0 l/m 0 min 0 min 0 W/m 0,0 km/h (0 Bft) 97,87 %
21.08.2020 06:44 22,3 C 20,6 C 20,0 C 91 % 1006,7 hPa 0,0 l/m 0 min 0 min 0 W/m 0,0 km/h (0 Bft) 100,00 %
21.08.2020 06:46 22,3 C 20,6 C 20,0 C 91 % 1006,6 hPa 0,0 l/m 0 min 0 min 0 W/m 0,0 km/h (0 Bft) 100,00 %
21.08.2020 06:48 22,3 C 20,6 C 20,0 C 91 % 1006,5 hPa 0,0 l/m 0 min 0 min 0 W/m 0,0 km/h (0 Bft) 100,00 %
21.08.2020 06:50 22,3 C 20,6 C 20,0 C 91 % 1006,6 hPa 0,0 l/m 0 min 0 min 4 W/m 0,0 km/h (0 Bft) 100,00 %
21.08.2020 06:54 22,4 C 20,6 C 20,0 C 91 % 1006,7 hPa 0,0 l/m 0 min 0 min 10 W/m 0,0 km/h (0 Bft) 98,18 %
21.08.2020 06:56 22,4 C 20,6 C 20,0 C 91 % 1006,6 hPa 0,0 l/m 0 min 0 min 15 W/m 0,0 km/h (0 Bft) 100,00 %
21.08.2020 06:58 22,4 C 20,6 C 19,4 C 91 % 1006,6 hPa 0,0 l/m 0 min 0 min 19 W/m 0,0 km/h (0 Bft) 100,00 %
21.08.2020 07:00 22,4 C 20,6 C 20,0 C 90 % 1006,5 hPa 0,0 l/m 0 min 0 min 19 W/m 0,0 km/h (0 Bft) 97,87 %
21.08.2020 07:02 22,4 C 21,1 C 20,0 C 90 % 1006,5 hPa 0,0 l/m 0 min 0 min 19 W/m 0,0 km/h (0 Bft) 97,83 %
21.08.2020 07:04 22,4 C 21,1 C 20,0 C 90 % 1006,4 hPa 0,0 l/m 0 min 0 min 18 W/m 0,0 km/h (0 Bft) 100,00 %
21.08.2020 07:06 22,4 C 21,1 C 20,0 C 90 % 1006,3 hPa 0,0 l/m 0 min 0 min 17 W/m 0,0 km/h (0 Bft) 97,87 %
21.08.2020 07:08 22,4 C 21,1 C 20,0 C 90 % 1006,2 hPa 0,0 l/m 0 min 0 min 16 W/m 0,0 km/h (0 Bft) 93,75 %
21.08.2020 07:10 22,4 C 21,1 C 20,0 C 90 % 1006,1 hPa 0,0 l/m 0 min 0 min 16 W/m 0,0 km/h (0 Bft) 95,92 %
21.08.2020 07:12 22,4 C 21,7 C 20,0 C 90 % 1006,4 hPa 0,0 l/m 0 min 0 min 16 W/m 0,0 km/h (0 Bft) 95,74 %
21.08.2020 07:14 22,4 C 21,7 C 20,0 C 90 % 1006,5 hPa 0,0 l/m 0 min 0 min 16 W/m 0,0 km/h (0 Bft) 93,62 %
21.08.2020 07:16 22,4 C 21,7 C 20,0 C 90 % 1006,6 hPa 0,0 l/m 0 min 0 min 18 W/m 0,0 km/h (0 Bft) 97,83 %
21.08.2020 07:18 22,5 C 21,7 C 20,0 C 90 % 1006,6 hPa 0,0 l/m 0 min 0 min 19 W/m 0,0 km/h (0 Bft) 97,87 %
21.08.2020 07:20 22,5 C 22,2 C 20,0 C 90 % 1006,7 hPa 0,0 l/m 0 min 0 min 23 W/m 0,0 km/h (0 Bft) 95,74 %
21.08.2020 07:22 22,4 C 22,2 C 20,0 C 90 % 1006,8 hPa 0,0 l/m 0 min 0 min 25 W/m 0,0 km/h (0 Bft) 95,74 %
21.08.2020 07:24 22,5 C 22,2 C 20,0 C 89 % 1006,9 hPa 0,0 l/m 0 min 0 min 21 W/m 0,0 km/h (0 Bft) 93,62 %
21.08.2020 07:26 22,5 C 22,2 C 20,0 C 89 % 1006,9 hPa 0,0 l/m 0 min 0 min 15 W/m 0,0 km/h (0 Bft) 95,74 %
21.08.2020 07:28 22,5 C 22,2 C 20,0 C 89 % 1007,0 hPa 0,0 l/m 0 min 0 min 11 W/m 0,0 km/h (0 Bft) 93,48 %
21.08.2020 07:30 22,5 C 22,2 C 20,0 C 89 % 1007,2 hPa 0,0 l/m 0 min 0 min 9 W/m 0,0 km/h (0 Bft) 95,74 %
21.08.2020 07:32 22,6 C 22,2 C 20,0 C 89 % 1007,2 hPa 0,0 l/m 0 min 0 min 10 W/m 0,0 km/h (0 Bft) 91,49 %
21.08.2020 07:34 22,6 C 22,2 C 20,0 C 89 % 1007,4 hPa 0,0 l/m 0 min 0 min 14 W/m 0,0 km/h (0 Bft) 93,62 %
21.08.2020 07:36 22,6 C 22,2 C 20,0 C 89 % 1007,5 hPa 0,0 l/m 0 min 0 min 24 W/m 0,0 km/h (0 Bft) 93,62 %
21.08.2020 07:38 22,6 C 22,8 C 20,0 C 89 % 1007,6 hPa 0,0 l/m 0 min 0 min 28 W/m 12,9 km/h (3 Bft) 93,62 %
21.08.2020 07:40 22,6 C 22,8 C 20,0 C 89 % 1007,8 hPa 0,0 l/m 0 min 0 min 27 W/m 3,2 km/h (1 Bft) 91,30 %
21.08.2020 07:42 22,6 C 22,2 C 20,0 C 89 % 1007,8 hPa 0,0 l/m 0 min 0 min 23 W/m 0,0 km/h (0 Bft) 93,62 %
21.08.2020 07:44 22,7 C 22,8 C 20,0 C 88 % 1007,8 hPa 0,0 l/m 0 min 0 min 21 W/m 3,2 km/h (1 Bft) 93,62 %
21.08.2020 07:46 22,7 C 22,8 C 20,6 C 87 % 1007,9 hPa 0,0 l/m 0 min 0 min 21 W/m 3,2 km/h (1 Bft) 93,62 %
21.08.2020 07:48 22,7 C 22,8 C 20,6 C 87 % 1007,9 hPa 0,0 l/m 0 min 0 min 25 W/m 0,0 km/h (0 Bft) 93,18 %
21.08.2020 07:50 22,7 C 22,8 C 20,0 C 86 % 1008,0 hPa 0,0 l/m 0 min 0 min 33 W/m 0,0 km/h (0 Bft) 89,13 %
21.08.2020 07:52 22,8 C 22,8 C 20,6 C 86 % 1008,1 hPa 0,0 l/m 0 min 0 min 32 W/m 0,0 km/h (0 Bft) 93,62 %
21.08.2020 07:54 22,8 C 22,8 C 20,6 C 86 % 1008,1 hPa 0,0 l/m 0 min 0 min 28 W/m 0,0 km/h (0 Bft) 93,62 %
21.08.2020 07:56 22,8 C 22,8 C 20,6 C 85 % 1008,2 hPa 0,0 l/m 0 min 0 min 26 W/m 0,0 km/h (0 Bft) 91,49 %
21.08.2020 07:58 22,9 C 22,8 C 20,6 C 85 % 1008,2 hPa 0,0 l/m 0 min 0 min 26 W/m 6,4 km/h (2 Bft) 93,62 %
21.08.2020 08:00 22,9 C 22,8 C 20,6 C 84 % 1008,3 hPa 0,0 l/m 0 min 0 min 27 W/m 3,2 km/h (1 Bft) 91,49 %
21.08.2020 08:02 23,0 C 22,8 C 20,6 C 82 % 1008,4 hPa 0,0 l/m 0 min 0 min 26 W/m 0,0 km/h (0 Bft) 87,23 %
21.08.2020 08:04 23,0 C 22,8 C 20,6 C 82 % 1008,3 hPa 0,0 l/m 0 min 0 min 21 W/m 0,0 km/h (0 Bft) 93,62 %
21.08.2020 08:06 23,1 C 22,8 C 20,6 C 81 % 1008,3 hPa 0,0 l/m 0 min 0 min 16 W/m 3,2 km/h (1 Bft) 93,62 %
21.08.2020 08:08 23,1 C 22,8 C 20,6 C 79 % 1008,4 hPa 0,0 l/m 0 min 0 min 12 W/m 0,0 km/h (0 Bft) 95,74 %
21.08.2020 08:10 23,1 C 22,8 C 20,6 C 79 % 1008,5 hPa 0,0 l/m 0 min 0 min 11 W/m 0,0 km/h (0 Bft) 97,87 %
21.08.2020 08:12 23,1 C 22,8 C 20,6 C 79 % 1008,4 hPa 0,0 l/m 0 min 0 min 11 W/m 6,4 km/h (2 Bft) 93,62 %
21.08.2020 08:14 23,2 C 22,8 C 20,6 C 78 % 1008,5 hPa 0,0 l/m 0 min 0 min 12 W/m 9,7 km/h (2 Bft) 100,00 %
21.08.2020 08:16 23,2 C 22,8 C 20,6 C 77 % 1008,6 hPa 0,0 l/m 0 min 0 min 13 W/m 0,0 km/h (0 Bft) 97,87 %
21.08.2020 08:18 23,2 C 22,8 C 20,6 C 77 % 1008,6 hPa 0,0 l/m 0 min 0 min 14 W/m 3,2 km/h (1 Bft) 100,00 %
21.08.2020 08:20 23,3 C 22,8 C 20,6 C 77 % 1008,5 hPa 0,0 l/m 0 min 0 min 14 W/m 12,9 km/h (3 Bft) 100,00 %
21.08.2020 08:22 23,3 C 22,8 C 20,6 C 76 % 1008,7 hPa 0,0 l/m 0 min 0 min 14 W/m 3,2 km/h (1 Bft) 97,87 %
21.08.2020 08:24 23,3 C 22,8 C 20,6 C 76 % 1008,6 hPa 0,0 l/m 0 min 0 min 14 W/m 0,0 km/h (0 Bft) 97,83 %
21.08.2020 08:26 23,3 C 22,2 C 20,6 C 76 % 1008,7 hPa 0,0 l/m 0 min 0 min 14 W/m 0,0 km/h (0 Bft) 100,00 %
21.08.2020 08:28 23,3 C 22,2 C 20,6 C 76 % 1008,7 hPa 0,0 l/m 0 min 0 min 16 W/m 0,0 km/h (0 Bft) 100,00 %
21.08.2020 08:30 23,3 C 22,2 C 20,6 C 77 % 1008,7 hPa 0,0 l/m 0 min 0 min 16 W/m 0,0 km/h (0 Bft) 100,00 %
21.08.2020 08:32 23,3 C 22,2 C 20,6 C 77 % 1008,8 hPa 0,0 l/m 0 min 2 min 18 W/m 0,0 km/h (0 Bft) 97,92 %
21.08.2020 08:34 23,3 C 22,2 C 20,6 C 78 % 1008,9 hPa 0,0 l/m 0 min 0 min 19 W/m 0,0 km/h (0 Bft) 97,87 %
21.08.2020 08:36 23,3 C 21,1 C 20,0 C 78 % 1008,9 hPa 0,0 l/m 0 min 2 min 22 W/m 0,0 km/h (0 Bft) 97,92 %
21.08.2020 08:38 23,3 C 21,1 C 20,0 C 79 % 1008,8 hPa 0,0 l/m 0 min 0 min 26 W/m 0,0 km/h (0 Bft) 100,00 %
21.08.2020 08:40 23,3 C 21,1 C 20,0 C 79 % 1008,7 hPa 0,0 l/m 0 min 0 min 32 W/m 3,2 km/h (1 Bft) 100,00 %
21.08.2020 08:42 23,2 C 21,7 C 20,6 C 78 % 1008,7 hPa 0,0 l/m 0 min 0 min 37 W/m 3,2 km/h (1 Bft) 100,00 %
21.08.2020 08:44 23,2 C 21,7 C 20,6 C 79 % 1008,8 hPa 0,0 l/m 0 min 0 min 43 W/m 3,2 km/h (1 Bft) 100,00 %
21.08.2020 08:46 23,1 C 22,2 C 20,6 C 78 % 1008,7 hPa 0,0 l/m 0 min 0 min 46 W/m 0,0 km/h (0 Bft) 100,00 %
21.08.2020 08:48 23,1 C 22,2 C 20,6 C 79 % 1008,8 hPa 0,0 l/m 0 min 0 min 42 W/m 0,0 km/h (0 Bft) 100,00 %
21.08.2020 08:50 23,1 C 22,2 C 20,6 C 79 % 1008,9 hPa 0,0 l/m 0 min 0 min 36 W/m 0,0 km/h (0 Bft) 100,00 %
21.08.2020 08:52 23,0 C 22,2 C 20,6 C 79 % 1008,7 hPa 0,0 l/m 0 min 0 min 32 W/m 0,0 km/h (0 Bft) 97,87 %
21.08.2020 08:54 23,0 C 21,7 C 20,6 C 80 % 1008,7 hPa 0,0 l/m 0 min 0 min 28 W/m 0,0 km/h (0 Bft) 100,00 %
21.08.2020 08:56 22,9 C 21,7 C 20,6 C 80 % 1008,7 hPa 0,0 l/m 0 min 2 min 24 W/m 0,0 km/h (0 Bft) 97,83 %
21.08.2020 08:58 22,9 C 21,1 C 20,6 C 80 % 1008,7 hPa 0,2 l/m 0 min 2 min 23 W/m 0,0 km/h (0 Bft) 100,00 %
21.08.2020 09:00 22,9 C 19,4 C 20,0 C 82 % 1008,7 hPa 0,0 l/m 0 min 2 min 29 W/m 3,2 km/h (1 Bft) 100,00 %
21.08.2020 09:02 22,9 C 19,4 C 19,4 C 82 % 1008,7 hPa 0,0 l/m 0 min 2 min 38 W/m 0,0 km/h (0 Bft) 100,00 %
21.08.2020 09:04 22,9 C 19,4 C 19,4 C 83 % 1008,7 hPa 0,0 l/m 0 min 2 min 40 W/m 0,0 km/h (0 Bft) 100,00 %
21.08.2020 09:06 22,8 C 19,4 C 19,4 C 84 % 1008,8 hPa 0,0 l/m 0 min 0 min 43 W/m 0,0 km/h (0 Bft) 100,00 %
21.08.2020 09:08 22,8 C 19,4 C 19,4 C 84 % 1008,9 hPa 0,0 l/m 0 min 0 min 43 W/m 0,0 km/h (0 Bft) 100,00 %
21.08.2020 09:10 22,7 C 19,4 C 19,4 C 84 % 1008,9 hPa 0,0 l/m 0 min 0 min 37 W/m 0,0 km/h (0 Bft) 100,00 %
21.08.2020 09:12 22,7 C 19,4 C 19,4 C 84 % 1008,9 hPa 0,0 l/m 0 min 0 min 38 W/m 3,2 km/h (1 Bft) 100,00 %
21.08.2020 09:14 22,6 C 20,0 C 19,4 C 84 % 1008,9 hPa 0,0 l/m 0 min 0 min 35 W/m 0,0 km/h (0 Bft) 100,00 %
21.08.2020 09:16 22,6 C 20,0 C 19,4 C 85 % 1008,9 hPa 0,0 l/m 0 min 0 min 34 W/m 0,0 km/h (0 Bft) 100,00 %
21.08.2020 09:18 22,5 C 20,0 C 19,4 C 85 % 1008,9 hPa 0,0 l/m 0 min 0 min 37 W/m 0,0 km/h (0 Bft) 100,00 %
21.08.2020 09:20 22,4 C 20,0 C 19,4 C 85 % 1008,8 hPa 0,0 l/m 0 min 0 min 36 W/m 0,0 km/h (0 Bft) 100,00 %
21.08.2020 09:22 22,4 C 20,0 C 19,4 C 85 % 1008,9 hPa 0,0 l/m 0 min 0 min 32 W/m 0,0 km/h (0 Bft) 100,00 %
21.08.2020 09:24 22,4 C 20,0 C 19,4 C 86 % 1008,7 hPa 0,0 l/m 0 min 0 min 30 W/m 0,0 km/h (0 Bft) 100,00 %
21.08.2020 09:26 22,4 C 19,4 C 19,4 C 86 % 1008,8 hPa 0,0 l/m 0 min 2 min 26 W/m 0,0 km/h (0 Bft) 100,00 %
21.08.2020 09:28 22,3 C 19,4 C 19,4 C 86 % 1008,7 hPa 0,0 l/m 0 min 2 min 28 W/m 0,0 km/h (0 Bft) 100,00 %
21.08.2020 09:30 22,3 C 19,4 C 19,4 C 86 % 1008,7 hPa 0,0 l/m 0 min 2 min 33 W/m 0,0 km/h (0 Bft) 100,00 %
21.08.2020 09:32 22,3 C 19,4 C 19,4 C 86 % 1008,8 hPa 0,0 l/m 0 min 2 min 38 W/m 0,0 km/h (0 Bft) 100,00 %
21.08.2020 09:34 22,3 C 19,4 C 19,4 C 86 % 1008,8 hPa 0,2 l/m 0 min 2 min 39 W/m 0,0 km/h (0 Bft) 100,00 %
21.08.2020 09:36 22,3 C 19,4 C 19,4 C 86 % 1008,8 hPa 0,0 l/m 0 min 0 min 32 W/m 0,0 km/h (0 Bft) 100,00 %
21.08.2020 09:38 22,3 C 19,4 C 19,4 C 87 % 1008,9 hPa 0,0 l/m 0 min 0 min 26 W/m 0,0 km/h (0 Bft) 100,00 %
21.08.2020 09:40 22,3 C 19,4 C 19,4 C 87 % 1008,8 hPa 0,0 l/m 0 min 0 min 29 W/m 0,0 km/h (0 Bft) 100,00 %
21.08.2020 09:42 22,2 C 19,4 C 19,4 C 87 % 1008,6 hPa 0,0 l/m 0 min 2 min 36 W/m 0,0 km/h (0 Bft) 100,00 %
21.08.2020 09:44 22,2 C 19,4 C 19,4 C 87 % 1008,7 hPa 0,0 l/m 0 min 2 min 45 W/m 0,0 km/h (0 Bft) 100,00 %
21.08.2020 09:46 22,2 C 19,4 C 19,4 C 87 % 1008,9 hPa 0,0 l/m 0 min 2 min 48 W/m 0,0 km/h (0 Bft) 97,87 %
21.08.2020 09:48 22,2 C 19,4 C 19,4 C 87 % 1009,0 hPa 0,0 l/m 0 min 2 min 64 W/m 0,0 km/h (0 Bft) 100,00 %
21.08.2020 09:50 22,2 C 20,0 C 19,4 C 87 % 1009,0 hPa 0,0 l/m 0 min 2 min 76 W/m 0,0 km/h (0 Bft) 100,00 %
21.08.2020 09:52 22,2 C 20,0 C 19,4 C 87 % 1008,9 hPa 0,0 l/m 0 min 2 min 86 W/m 0,0 km/h (0 Bft) 100,00 %
21.08.2020 09:54 22,2 C 20,0 C 19,4 C 87 % 1008,8 hPa 0,0 l/m 0 min 2 min 100 W/m 0,0 km/h (0 Bft) 97,87 %
21.08.2020 09:56 22,2 C 20,6 C 20,0 C 88 % 1008,6 hPa 0,0 l/m 0 min 0 min 113 W/m 0,0 km/h (0 Bft) 97,87 %
21.08.2020 09:58 22,2 C 20,6 C 20,0 C 88 % 1008,4 hPa 0,0 l/m 0 min 0 min 114 W/m 0,0 km/h (0 Bft) 100,00 %
21.08.2020 10:00 22,2 C 20,6 C 20,0 C 89 % 1008,4 hPa 0,0 l/m 0 min 0 min 129 W/m 0,0 km/h (0 Bft) 100,00 %
21.08.2020 10:02 22,2 C 21,1 C 20,6 C 89 % 1008,3 hPa 0,0 l/m 0 min 0 min 158 W/m 0,0 km/h (0 Bft) 100,00 %
21.08.2020 10:04 22,2 C 21,1 C 20,6 C 89 % 1008,2 hPa 0,0 l/m 0 min 0 min 177 W/m 0,0 km/h (0 Bft) 100,00 %
21.08.2020 10:06 22,3 C 21,7 C 21,1 C 90 % 1008,1 hPa 0,0 l/m 0 min 0 min 204 W/m 0,0 km/h (0 Bft) 97,87 %
21.08.2020 10:08 22,3 C 22,2 C 21,7 C 90 % 1008,1 hPa 0,0 l/m 0 min 0 min 254 W/m 0,0 km/h (0 Bft) 100,00 %
21.08.2020 10:10 22,3 C 22,2 C 21,7 C 90 % 1008,1 hPa 0,0 l/m 0 min 0 min 239 W/m 0,0 km/h (0 Bft) 97,83 %
21.08.2020 10:12 22,3 C 22,2 C 21,1 C 91 % 1008,1 hPa 0,0 l/m 0 min 0 min 174 W/m 3,2 km/h (1 Bft) 97,87 %
21.08.2020 10:14 22,3 C 21,7 C 21,1 C 90 % 1008,0 hPa 0,0 l/m 0 min 0 min 105 W/m 0,0 km/h (0 Bft) 95,74 %
21.08.2020 10:16 22,3 C 21,1 C 20,6 C 90 % 1008,0 hPa 0,0 l/m 0 min 0 min 68 W/m 6,4 km/h (2 Bft) 95,74 %
21.08.2020 10:18 22,3 C 21,1 C 20,6 C 90 % 1008,0 hPa 0,0 l/m 0 min 0 min 44 W/m 3,2 km/h (1 Bft) 95,74 %
21.08.2020 10:20 22,3 C 21,1 C 20,6 C 89 % 1008,0 hPa 0,0 l/m 0 min 2 min 37 W/m 12,9 km/h (3 Bft) 95,74 %
21.08.2020 10:22 22,2 C 20,6 C 20,6 C 89 % 1008,2 hPa 0,0 l/m 0 min 2 min 35 W/m 0,0 km/h (0 Bft) 95,65 %
21.08.2020 10:24 22,2 C 20,6 C 20,0 C 88 % 1008,3 hPa 0,0 l/m 0 min 2 min 30 W/m 0,0 km/h (0 Bft) 93,62 %
21.08.2020 10:26 22,2 C 20,6 C 20,0 C 88 % 1008,7 hPa 0,0 l/m 0 min 2 min 30 W/m 0,0 km/h (0 Bft) 95,74 %
21.08.2020 10:28 22,2 C 20,6 C 20,0 C 88 % 1008,9 hPa 0,0 l/m 0 min 0 min 35 W/m 0,0 km/h (0 Bft) 95,74 %
21.08.2020 10:30 22,2 C 20,0 C 20,0 C 88 % 1008,9 hPa 0,0 l/m 0 min 2 min 47 W/m 0,0 km/h (0 Bft) 91,49 %
21.08.2020 10:32 22,3 C 20,0 C 19,4 C 88 % 1009,0 hPa 0,0 l/m 0 min 2 min 52 W/m 0,0 km/h (0 Bft) 89,36 %
21.08.2020 10:34 22,3 C 20,0 C 19,4 C 88 % 1009,1 hPa 0,0 l/m 0 min 2 min 51 W/m 12,9 km/h (3 Bft) 93,48 %
21.08.2020 10:36 22,3 C 19,4 C 19,4 C 88 % 1009,1 hPa 0,0 l/m 0 min 2 min 60 W/m 3,2 km/h (1 Bft) 93,62 %
21.08.2020 10:38 22,3 C 20,0 C 19,4 C 88 % 1009,1 hPa 0,0 l/m 0 min 2 min 68 W/m 0,0 km/h (0 Bft) 95,74 %
21.08.2020 10:40 22,3 C 20,0 C 19,4 C 88 % 1009,1 hPa 0,0 l/m 0 min 2 min 68 W/m 6,4 km/h (2 Bft) 93,62 %
21.08.2020 10:42 22,2 C 20,6 C 19,4 C 88 % 1009,2 hPa 0,0 l/m 0 min 2 min 63 W/m 12,9 km/h (3 Bft) 89,36 %
21.08.2020 10:44 22,2 C 20,0 C 20,0 C 88 % 1009,2 hPa 0,0 l/m 0 min 0 min 58 W/m 16,1 km/h (3 Bft) 93,62 %
21.08.2020 10:46 22,2 C 20,0 C 19,4 C 88 % 1009,2 hPa 0,0 l/m 0 min 2 min 61 W/m 16,1 km/h (3 Bft) 91,30 %
21.08.2020 10:48 22,2 C 20,6 C 19,4 C 88 % 1009,1 hPa 0,0 l/m 0 min 2 min 62 W/m 3,2 km/h (1 Bft) 93,62 %
21.08.2020 10:50 22,2 C 20,6 C 19,4 C 88 % 1009,0 hPa 0,0 l/m 0 min 2 min 63 W/m 12,9 km/h (3 Bft) 93,62 %
21.08.2020 10:52 22,2 C 20,6 C 19,4 C 88 % 1009,0 hPa 0,0 l/m 0 min 0 min 70 W/m 6,4 km/h (2 Bft) 91,49 %
21.08.2020 10:54 22,2 C 20,6 C 19,4 C 88 % 1008,9 hPa 0,0 l/m 0 min 2 min 78 W/m 6,4 km/h (2 Bft) 93,62 %
21.08.2020 10:56 22,2 C 20,6 C 19,4 C 88 % 1009,0 hPa 0,0 l/m 0 min 2 min 88 W/m 3,2 km/h (1 Bft) 93,48 %
21.08.2020 10:58 22,2 C 20,6 C 19,4 C 88 % 1008,9 hPa 0,0 l/m 0 min 2 min 97 W/m 16,1 km/h (3 Bft) 93,62 %
21.08.2020 11:00 22,2 C 21,1 C 19,4 C 88 % 1008,9 hPa 0,0 l/m 0 min 2 min 110 W/m 3,2 km/h (1 Bft) 95,74 %
21.08.2020 11:02 22,2 C 21,1 C 19,4 C 88 % 1008,9 hPa 0,0 l/m 0 min 0 min 115 W/m 0,0 km/h (0 Bft) 95,74 %
21.08.2020 11:04 22,2 C 21,1 C 20,0 C 88 % 1008,9 hPa 0,0 l/m 0 min 0 min 124 W/m 0,0 km/h (0 Bft) 95,74 %
21.08.2020 11:06 22,2 C 21,1 C 20,0 C 88 % 1009,0 hPa 0,0 l/m 0 min 2 min 134 W/m 0,0 km/h (0 Bft) 95,74 %
21.08.2020 11:08 22,2 C 21,7 C 20,0 C 88 % 1009,0 hPa 0,0 l/m 0 min 0 min 133 W/m 6,4 km/h (2 Bft) 97,87 %
21.08.2020 11:10 22,2 C 21,1 C 20,6 C 88 % 1009,1 hPa 0,0 l/m 0 min 2 min 117 W/m 6,4 km/h (2 Bft) 100,00 %
21.08.2020 11:12 22,2 C 21,1 C 20,6 C 88 % 1009,1 hPa 0,0 l/m 0 min 2 min 92 W/m 3,2 km/h (1 Bft) 97,87 %
21.08.2020 11:14 22,2 C 21,1 C 20,6 C 88 % 1009,0 hPa 0,0 l/m 0 min 2 min 84 W/m 12,9 km/h (3 Bft) 97,87 %
21.08.2020 11:16 22,3 C 21,1 C 20,6 C 88 % 1009,1 hPa 0,0 l/m 0 min 0 min 77 W/m 0,0 km/h (0 Bft) 97,87 %
21.08.2020 11:18 22,3 C 21,1 C 20,6 C 88 % 1009,1 hPa 0,0 l/m 0 min 0 min 68 W/m 6,4 km/h (2 Bft) 97,87 %
21.08.2020 11:20 22,3 C 21,1 C 20,6 C 88 % 1009,1 hPa 0,0 l/m 0 min 0 min 54 W/m 22,5 km/h (4 Bft) 97,83 %
21.08.2020 11:22 22,3 C 21,1 C 20,0 C 88 % 1009,1 hPa 0,0 l/m 0 min 2 min 44 W/m 0,0 km/h (0 Bft) 95,74 %
21.08.2020 11:24 22,3 C 21,1 C 20,0 C 88 % 1009,1 hPa 0,0 l/m 0 min 2 min 45 W/m 3,2 km/h (1 Bft) 97,87 %
21.08.2020 11:26 22,3 C 21,1 C 20,0 C 88 % 1009,1 hPa 0,0 l/m 0 min 2 min 60 W/m 3,2 km/h (1 Bft) 97,87 %
21.08.2020 11:28 22,3 C 21,1 C 20,0 C 88 % 1009,1 hPa 0,0 l/m 0 min 0 min 77 W/m 9,7 km/h (2 Bft) 100,00 %
21.08.2020 11:30 22,3 C 21,1 C 20,0 C 88 % 1009,0 hPa 0,0 l/m 0 min 0 min 95 W/m 0,0 km/h (0 Bft) 100,00 %
21.08.2020 11:32 22,3 C 21,7 C 20,0 C 88 % 1009,1 hPa 0,0 l/m 0 min 0 min 104 W/m 3,2 km/h (1 Bft) 100,00 %
21.08.2020 11:34 22,3 C 21,7 C 20,6 C 88 % 1009,1 hPa 0,0 l/m 0 min 0 min 111 W/m 3,2 km/h (1 Bft) 100,00 %
21.08.2020 11:36 22,3 C 22,2 C 20,6 C 88 % 1009,1 hPa 0,0 l/m 0 min 0 min 136 W/m 3,2 km/h (1 Bft) 97,87 %
21.08.2020 11:38 22,3 C 22,2 C 20,6 C 88 % 1009,1 hPa 0,0 l/m 0 min 0 min 160 W/m 3,2 km/h (1 Bft) 100,00 %
21.08.2020 11:40 22,4 C 22,8 C 20,6 C 88 % 1009,1 hPa 0,0 l/m 0 min 0 min 179 W/m 6,4 km/h (2 Bft) 100,00 %
21.08.2020 11:42 22,4 C 23,3 C 21,1 C 88 % 1009,1 hPa 0,0 l/m 0 min 0 min 226 W/m 0,0 km/h (0 Bft) 100,00 %
21.08.2020 11:44 22,4 C 23,9 C 21,1 C 88 % 1009,1 hPa 0,0 l/m 0 min 0 min 285 W/m 9,7 km/h (2 Bft) 100,00 %
21.08.2020 11:46 22,5 C 23,9 C 21,7 C 88 % 1009,1 hPa 0,0 l/m 0 min 0 min 272 W/m 3,2 km/h (1 Bft) 97,87 %
21.08.2020 11:48 22,6 C 24,4 C 21,7 C 89 % 1009,1 hPa 0,0 l/m 0 min 0 min 238 W/m 3,2 km/h (1 Bft) 100,00 %
21.08.2020 11:50 22,6 C 26,1 C 22,2 C 89 % 1009,2 hPa 0,0 l/m 0 min 0 min 329 W/m 3,2 km/h (1 Bft) 100,00 %
21.08.2020 11:52 22,7 C 27,8 C 22,2 C 89 % 1009,2 hPa 0,0 l/m 2 min 0 min 657 W/m 3,2 km/h (1 Bft) 95,74 %
21.08.2020 11:54 22,8 C 29,4 C 22,8 C 89 % 1009,2 hPa 0,0 l/m 2 min 0 min 775 W/m 6,4 km/h (2 Bft) 100,00 %
21.08.2020 11:56 23,0 C 30,0 C 22,8 C 89 % 1009,1 hPa 0,0 l/m 2 min 0 min 765 W/m 19,3 km/h (3 Bft) 97,83 %
21.08.2020 11:58 23,2 C 30,0 C 22,8 C 88 % 1009,2 hPa 0,0 l/m 2 min 0 min 759 W/m 16,1 km/h (3 Bft) 100,00 %
21.08.2020 12:00 23,4 C 30,6 C 22,8 C 87 % 1009,2 hPa 0,0 l/m 2 min 0 min 760 W/m 12,9 km/h (3 Bft) 100,00 %
21.08.2020 12:02 23,6 C 30,0 C 22,8 C 87 % 1009,1 hPa 0,0 l/m 2 min 0 min 764 W/m 22,5 km/h (4 Bft) 97,87 %
21.08.2020 12:04 23,8 C 30,6 C 23,3 C 86 % 1009,3 hPa 0,0 l/m 2 min 0 min 769 W/m 6,4 km/h (2 Bft) 100,00 %
21.08.2020 12:08 24,3 C 31,1 C 23,3 C 84 % 1009,2 hPa 0,0 l/m 4 min 0 min 777 W/m 12,9 km/h (3 Bft) 100,00 %
21.08.2020 12:10 24,4 C 31,7 C 23,9 C 84 % 1009,3 hPa 0,0 l/m 2 min 0 min 787 W/m 0,0 km/h (0 Bft) 100,00 %
21.08.2020 12:12 24,7 C 32,2 C 23,9 C 83 % 1009,3 hPa 0,0 l/m 2 min 0 min 811 W/m 0,0 km/h (0 Bft) 100,00 %
21.08.2020 12:14 24,9 C 32,2 C 24,4 C 81 % 1009,2 hPa 0,0 l/m 2 min 0 min 837 W/m 19,3 km/h (3 Bft) 100,00 %
21.08.2020 12:16 25,2 C 32,2 C 24,4 C 81 % 1009,2 hPa 0,0 l/m 2 min 0 min 829 W/m 12,9 km/h (3 Bft) 100,00 %
21.08.2020 12:18 25,4 C 32,8 C 24,4 C 80 % 1009,2 hPa 0,0 l/m 2 min 0 min 808 W/m 16,1 km/h (3 Bft) 100,00 %
21.08.2020 12:20 25,6 C 32,8 C 24,4 C 79 % 1009,2 hPa 0,0 l/m 2 min 0 min 797 W/m 16,1 km/h (3 Bft) 100,00 %
21.08.2020 12:22 25,8 C 32,8 C 24,4 C 78 % 1009,1 hPa 0,0 l/m 2 min 0 min 811 W/m 19,3 km/h (3 Bft) 100,00 %
21.08.2020 12:24 26,1 C 32,2 C 25,0 C 76 % 1009,0 hPa 0,0 l/m 2 min 0 min 837 W/m 22,5 km/h (4 Bft) 100,00 %
21.08.2020 12:26 26,2 C 32,2 C 25,0 C 75 % 1009,0 hPa 0,0 l/m 2 min 0 min 872 W/m 22,5 km/h (4 Bft) 100,00 %
21.08.2020 12:28 26,5 C 32,8 C 25,0 C 74 % 1009,1 hPa 0,0 l/m 2 min 0 min 880 W/m 19,3 km/h (3 Bft) 100,00 %
21.08.2020 12:30 26,7 C 33,3 C 25,6 C 74 % 1009,1 hPa 0,0 l/m 2 min 0 min 914 W/m 12,9 km/h (3 Bft) 100,00 %
21.08.2020 12:32 26,9 C 33,3 C 25,6 C 73 % 1009,1 hPa 0,0 l/m 2 min 0 min 895 W/m 19,3 km/h (3 Bft) 95,65 %
21.08.2020 12:34 27,1 C 33,9 C 25,6 C 73 % 1009,2 hPa 0,0 l/m 2 min 0 min 908 W/m 16,1 km/h (3 Bft) 100,00 %
21.08.2020 12:36 27,3 C 33,9 C 26,1 C 72 % 1009,2 hPa 0,0 l/m 2 min 0 min 950 W/m 22,5 km/h (4 Bft) 100,00 %
21.08.2020 12:38 27,5 C 33,3 C 26,1 C 71 % 1009,3 hPa 0,0 l/m 2 min 0 min 1009 W/m 25,7 km/h (4 Bft) 100,00 %
21.08.2020 12:40 27,7 C 32,8 C 26,1 C 71 % 1009,2 hPa 0,0 l/m 2 min 0 min 932 W/m 16,1 km/h (3 Bft) 97,87 %
21.08.2020 12:42 27,8 C 31,7 C 26,7 C 70 % 1009,3 hPa 0,0 l/m 2 min 0 min 529 W/m 19,3 km/h (3 Bft) 97,87 %
21.08.2020 12:44 27,9 C 30,0 C 26,1 C 69 % 1009,3 hPa 0,0 l/m 0 min 0 min 353 W/m 22,5 km/h (4 Bft) 100,00 %
21.08.2020 12:46 28,0 C 29,4 C 26,1 C 69 % 1009,3 hPa 0,0 l/m 0 min 0 min 355 W/m 25,7 km/h (4 Bft) 100,00 %
21.08.2020 12:48 28,0 C 29,4 C 26,1 C 68 % 1009,2 hPa 0,0 l/m 2 min 0 min 404 W/m 16,1 km/h (3 Bft) 100,00 %
21.08.2020 12:50 28,1 C 29,4 C 26,1 C 68 % 1009,3 hPa 0,0 l/m 2 min 0 min 438 W/m 19,3 km/h (3 Bft) 97,87 %
21.08.2020 12:52 28,1 C 29,4 C 26,1 C 68 % 1009,2 hPa 0,0 l/m 2 min 0 min 438 W/m 16,1 km/h (3 Bft) 95,74 %
21.08.2020 12:54 28,1 C 29,4 C 26,1 C 68 % 1009,3 hPa 0,0 l/m 2 min 0 min 375 W/m 12,9 km/h (3 Bft) 97,83 %
21.08.2020 12:56 28,1 C 29,4 C 26,1 C 68 % 1009,3 hPa 0,0 l/m 2 min 0 min 384 W/m 22,5 km/h (4 Bft) 97,87 %
21.08.2020 12:58 28,1 C 30,0 C 26,1 C 69 % 1009,3 hPa 0,0 l/m 2 min 0 min 425 W/m 16,1 km/h (3 Bft) 97,87 %
21.08.2020 13:00 28,1 C 31,1 C 26,1 C 69 % 1009,4 hPa 0,0 l/m 2 min 0 min 542 W/m 12,9 km/h (3 Bft) 95,74 %
21.08.2020 13:02 28,2 C 32,2 C 26,7 C 69 % 1009,4 hPa 0,0 l/m 2 min 0 min 561 W/m 16,1 km/h (3 Bft) 93,62 %
21.08.2020 13:04 28,2 C 33,9 C 26,7 C 69 % 1009,4 hPa 0,0 l/m 2 min 0 min 838 W/m 16,1 km/h (3 Bft) 97,87 %
21.08.2020 13:06 28,3 C 35,0 C 26,7 C 69 % 1009,3 hPa 0,0 l/m 2 min 0 min 982 W/m 16,1 km/h (3 Bft) 97,83 %
21.08.2020 13:08 28,4 C 36,1 C 27,2 C 69 % 1009,4 hPa 0,0 l/m 2 min 0 min 959 W/m 19,3 km/h (3 Bft) 97,87 %
21.08.2020 13:10 28,6 C 35,0 C 26,7 C 67 % 1009,4 hPa 0,0 l/m 2 min 0 min 943 W/m 25,7 km/h (4 Bft) 95,74 %
21.08.2020 13:12 28,7 C 35,0 C 27,2 C 67 % 1009,4 hPa 0,0 l/m 2 min 0 min 932 W/m 25,7 km/h (4 Bft) 97,87 %
21.08.2020 13:14 28,9 C 36,1 C 26,7 C 67 % 1009,3 hPa 0,0 l/m 2 min 0 min 943 W/m 9,7 km/h (2 Bft) 95,74 %
21.08.2020 13:16 29,0 C 35,6 C 27,2 C 67 % 1009,3 hPa 0,0 l/m 2 min 0 min 941 W/m 19,3 km/h (3 Bft) 97,87 %
21.08.2020 13:18 29,2 C 35,6 C 27,2 C 66 % 1009,4 hPa 0,0 l/m 2 min 0 min 938 W/m 19,3 km/h (3 Bft) 93,48 %
21.08.2020 13:20 29,3 C 35,6 C 27,2 C 66 % 1009,3 hPa 0,0 l/m 2 min 0 min 964 W/m 16,1 km/h (3 Bft) 95,74 %
21.08.2020 13:22 29,4 C 35,6 C 27,2 C 65 % 1009,4 hPa 0,2 l/m 2 min 0 min 981 W/m 22,5 km/h (4 Bft) 95,74 %
21.08.2020 13:24 29,6 C 35,6 C 27,2 C 65 % 1009,4 hPa 0,0 l/m 2 min 0 min 976 W/m 22,5 km/h (4 Bft) 95,74 %
21.08.2020 13:26 29,7 C 36,1 C 27,8 C 64 % 1009,4 hPa 0,0 l/m 2 min 0 min 1021 W/m 22,5 km/h (4 Bft) 95,74 %
21.08.2020 13:28 29,8 C 35,6 C 27,8 C 61 % 1009,5 hPa 0,0 l/m 2 min 0 min 775 W/m 35,4 km/h (5 Bft) 95,74 %
21.08.2020 13:30 30,0 C 36,1 C 28,9 C 61 % 1009,4 hPa 0,0 l/m 2 min 0 min 775 W/m 35,4 km/h (5 Bft) 93,48 %
21.08.2020 13:32 30,1 C 35,0 C 28,9 C 60 % 1009,4 hPa 0,0 l/m 2 min 0 min 858 W/m 25,7 km/h (4 Bft) 93,62 %
21.08.2020 13:34 30,3 C 35,0 C 28,9 C 60 % 1009,4 hPa 0,0 l/m 2 min 0 min 663 W/m 22,5 km/h (4 Bft) 95,74 %
21.08.2020 13:36 30,3 C 33,3 C 28,9 C 59 % 1009,6 hPa 0,0 l/m 2 min 0 min 680 W/m 25,7 km/h (4 Bft) 95,74 %
21.08.2020 13:38 30,4 C 33,9 C 28,9 C 61 % 1009,6 hPa 0,0 l/m 2 min 0 min 877 W/m 16,1 km/h (3 Bft) 97,87 %
21.08.2020 13:40 30,5 C 33,3 C 28,9 C 62 % 1009,7 hPa 0,0 l/m 2 min 0 min 1013 W/m 22,5 km/h (4 Bft) 97,83 %
21.08.2020 13:42 30,5 C 32,2 C 28,3 C 62 % 1009,6 hPa 0,0 l/m 2 min 0 min 1013 W/m 16,1 km/h (3 Bft) 97,87 %
21.08.2020 13:44 30,5 C 31,1 C 28,3 C 62 % 1009,7 hPa 0,0 l/m 2 min 0 min 613 W/m 22,5 km/h (4 Bft) 93,62 %
21.08.2020 13:46 30,5 C 30,6 C 27,8 C 62 % 1009,7 hPa 0,0 l/m 0 min 0 min 325 W/m 19,3 km/h (3 Bft) 97,87 %
21.08.2020 13:48 30,4 C 30,6 C 27,8 C 61 % 1009,7 hPa 0,0 l/m 0 min 0 min 301 W/m 19,3 km/h (3 Bft) 97,87 %
21.08.2020 13:50 30,4 C 30,6 C 27,8 C 61 % 1009,8 hPa 0,0 l/m 0 min 0 min 277 W/m 16,1 km/h (3 Bft) 97,87 %
21.08.2020 13:52 30,3 C 30,0 C 27,8 C 63 % 1009,7 hPa 0,0 l/m 0 min 0 min 274 W/m 12,9 km/h (3 Bft) 97,83 %
21.08.2020 13:54 30,3 C 29,4 C 27,2 C 63 % 1009,7 hPa 0,0 l/m 0 min 0 min 302 W/m 19,3 km/h (3 Bft) 97,87 %
21.08.2020 13:56 30,2 C 30,0 C 27,2 C 63 % 1009,7 hPa 0,0 l/m 0 min 0 min 318 W/m 16,1 km/h (3 Bft) 95,74 %
21.08.2020 13:58 30,2 C 31,1 C 27,8 C 64 % 1009,7 hPa 0,0 l/m 0 min 0 min 355 W/m 22,5 km/h (4 Bft) 97,87 %
21.08.2020 14:00 30,1 C 32,2 C 27,8 C 63 % 1009,7 hPa 0,0 l/m 2 min 0 min 876 W/m 19,3 km/h (3 Bft) 100,00 %
21.08.2020 14:02 30,1 C 31,7 C 27,8 C 64 % 1009,7 hPa 0,0 l/m 2 min 0 min 605 W/m 16,1 km/h (3 Bft) 97,87 %
21.08.2020 14:04 30,0 C 31,7 C 27,8 C 65 % 1009,7 hPa 0,0 l/m 2 min 0 min 391 W/m 6,4 km/h (2 Bft) 97,83 %
21.08.2020 14:06 30,0 C 30,6 C 27,8 C 64 % 1009,7 hPa 0,0 l/m 0 min 0 min 302 W/m 22,5 km/h (4 Bft) 100,00 %
21.08.2020 14:08 29,9 C 30,0 C 27,8 C 64 % 1009,7 hPa 0,0 l/m 0 min 0 min 288 W/m 16,1 km/h (3 Bft) 97,87 %
21.08.2020 14:10 29,9 C 30,6 C 27,8 C 65 % 1009,8 hPa 0,0 l/m 0 min 0 min 352 W/m 12,9 km/h (3 Bft) 97,87 %
21.08.2020 14:12 29,9 C 30,6 C 27,8 C 64 % 1009,8 hPa 0,0 l/m 2 min 0 min 418 W/m 16,1 km/h (3 Bft) 95,74 %
21.08.2020 14:14 29,8 C 31,1 C 27,8 C 64 % 1009,8 hPa 0,0 l/m 2 min 0 min 449 W/m 9,7 km/h (2 Bft) 97,87 %
21.08.2020 14:16 29,8 C 30,6 C 27,8 C 64 % 1009,8 hPa 0,0 l/m 2 min 0 min 428 W/m 16,1 km/h (3 Bft) 97,83 %
21.08.2020 14:18 29,8 C 30,6 C 27,8 C 64 % 1009,8 hPa 0,0 l/m 0 min 0 min 293 W/m 12,9 km/h (3 Bft) 97,96 %
21.08.2020 14:20 29,7 C 30,0 C 27,2 C 64 % 1009,8 hPa 0,0 l/m 0 min 0 min 258 W/m 16,1 km/h (3 Bft) 97,87 %
21.08.2020 14:22 29,7 C 30,0 C 27,2 C 65 % 1009,8 hPa 0,0 l/m 0 min 0 min 234 W/m 12,9 km/h (3 Bft) 97,87 %
21.08.2020 14:24 29,7 C 29,4 C 26,7 C 65 % 1009,8 hPa 0,0 l/m 0 min 0 min 193 W/m 6,4 km/h (2 Bft) 97,83 %
21.08.2020 14:26 29,7 C 29,4 C 26,7 C 65 % 1009,8 hPa 0,0 l/m 0 min 0 min 200 W/m 3,2 km/h (1 Bft) 97,87 %
21.08.2020 14:28 29,6 C 28,9 C 26,7 C 65 % 1009,8 hPa 0,0 l/m 0 min 0 min 213 W/m 12,9 km/h (3 Bft) 97,87 %
21.08.2020 14:30 29,6 C 28,9 C 26,7 C 64 % 1009,8 hPa 0,0 l/m 0 min 0 min 204 W/m 12,9 km/h (3 Bft) 97,87 %
21.08.2020 14:32 29,5 C 28,9 C 26,7 C 63 % 1009,8 hPa 0,0 l/m 0 min 0 min 196 W/m 16,1 km/h (3 Bft) 97,92 %
21.08.2020 14:34 29,4 C 28,9 C 27,2 C 62 % 1009,8 hPa 0,0 l/m 0 min 0 min 210 W/m 16,1 km/h (3 Bft) 97,87 %
21.08.2020 14:36 29,4 C 28,9 C 27,2 C 62 % 1009,8 hPa 0,0 l/m 0 min 0 min 208 W/m 12,9 km/h (3 Bft) 97,87 %
21.08.2020 14:38 29,4 C 28,9 C 27,2 C 63 % 1009,8 hPa 0,0 l/m 0 min 0 min 198 W/m 6,4 km/h (2 Bft) 97,83 %
21.08.2020 14:40 29,4 C 28,9 C 26,7 C 62 % 1009,8 hPa 0,0 l/m 0 min 0 min 180 W/m 16,1 km/h (3 Bft) 95,74 %
21.08.2020 14:42 29,3 C 28,9 C 26,7 C 62 % 1009,8 hPa 0,0 l/m 0 min 0 min 176 W/m 16,1 km/h (3 Bft) 97,87 %
21.08.2020 14:44 29,3 C 28,9 C 26,7 C 62 % 1009,7 hPa 0,0 l/m 0 min 0 min 208 W/m 22,5 km/h (4 Bft) 97,87 %
21.08.2020 14:46 29,3 C 29,4 C 26,7 C 61 % 1009,7 hPa 0,0 l/m 0 min 0 min 225 W/m 12,9 km/h (3 Bft) 95,74 %
21.08.2020 14:48 29,3 C 30,0 C 27,2 C 62 % 1009,7 hPa 0,0 l/m 0 min 0 min 275 W/m 9,7 km/h (2 Bft) 97,87 %
21.08.2020 14:50 29,3 C 30,6 C 27,2 C 63 % 1009,7 hPa 0,0 l/m 0 min 0 min 310 W/m 6,4 km/h (2 Bft) 97,83 %
21.08.2020 14:52 29,3 C 31,7 C 27,8 C 65 % 1009,7 hPa 0,0 l/m 2 min 0 min 449 W/m 6,4 km/h (2 Bft) 97,87 %
21.08.2020 14:54 29,3 C 32,2 C 27,8 C 64 % 1009,7 hPa 0,0 l/m 2 min 0 min 423 W/m 16,1 km/h (3 Bft) 97,87 %
21.08.2020 14:56 29,4 C 34,4 C 28,3 C 65 % 1009,8 hPa 0,0 l/m 2 min 0 min 459 W/m 12,9 km/h (3 Bft) 97,87 %
21.08.2020 14:58 29,5 C 35,6 C 28,3 C 64 % 1009,7 hPa 0,0 l/m 2 min 0 min 654 W/m 19,3 km/h (3 Bft) 100,00 %
21.08.2020 15:00 29,6 C 35,6 C 28,9 C 63 % 1009,8 hPa 0,0 l/m 2 min 0 min 924 W/m 12,9 km/h (3 Bft) 97,87 %
21.08.2020 15:02 29,7 C 34,4 C 28,9 C 62 % 1009,7 hPa 0,0 l/m 2 min 0 min 930 W/m 12,9 km/h (3 Bft) 100,00 %
21.08.2020 15:04 29,8 C 33,3 C 28,3 C 61 % 1009,7 hPa 0,0 l/m 2 min 0 min 373 W/m 12,9 km/h (3 Bft) 100,00 %
21.08.2020 15:06 29,9 C 32,8 C 28,3 C 63 % 1009,8 hPa 0,0 l/m 2 min 0 min 358 W/m 9,7 km/h (2 Bft) 100,00 %
21.08.2020 15:08 30,0 C 32,2 C 28,3 C 60 % 1009,8 hPa 0,0 l/m 2 min 0 min 493 W/m 19,3 km/h (3 Bft) 100,00 %
21.08.2020 15:10 30,1 C 31,7 C 28,3 C 60 % 1009,9 hPa 0,0 l/m 0 min 0 min 334 W/m 29,0 km/h (5 Bft) 97,87 %
21.08.2020 15:12 30,1 C 31,1 C 28,3 C 59 % 1009,8 hPa 0,0 l/m 2 min 0 min 372 W/m 29,0 km/h (5 Bft) 100,00 %
21.08.2020 15:14 30,1 C 31,1 C 28,3 C 59 % 1009,8 hPa 0,0 l/m 0 min 0 min 345 W/m 25,7 km/h (4 Bft) 100,00 %
21.08.2020 15:16 30,2 C 31,7 C 28,3 C 59 % 1009,7 hPa 0,0 l/m 2 min 0 min 376 W/m 19,3 km/h (3 Bft) 100,00 %
21.08.2020 15:18 30,2 C 32,2 C 28,3 C 60 % 1009,8 hPa 0,0 l/m 2 min 0 min 493 W/m 16,1 km/h (3 Bft) 100,00 %
21.08.2020 15:20 30,2 C 32,8 C 28,9 C 60 % 1009,8 hPa 0,0 l/m 2 min 0 min 511 W/m 16,1 km/h (3 Bft) 97,87 %
21.08.2020 15:22 30,3 C 33,9 C 28,9 C 61 % 1009,7 hPa 0,0 l/m 2 min 0 min 492 W/m 16,1 km/h (3 Bft) 100,00 %
21.08.2020 15:24 30,4 C 33,3 C 28,9 C 60 % 1009,6 hPa 0,0 l/m 2 min 0 min 491 W/m 16,1 km/h (3 Bft) 100,00 %
21.08.2020 15:26 30,4 C 33,3 C 28,9 C 59 % 1009,7 hPa 0,0 l/m 2 min 0 min 519 W/m 25,7 km/h (4 Bft) 100,00 %
21.08.2020 15:28 30,4 C 32,8 C 28,9 C 59 % 1009,5 hPa 0,0 l/m 2 min 0 min 522 W/m 19,3 km/h (3 Bft) 100,00 %
21.08.2020 15:30 30,5 C 32,8 C 28,9 C 59 % 1009,5 hPa 0,0 l/m 2 min 0 min 392 W/m 6,4 km/h (2 Bft) 100,00 %
21.08.2020 15:32 30,6 C 31,7 C 28,9 C 59 % 1009,5 hPa 0,0 l/m 0 min 0 min 337 W/m 19,3 km/h (3 Bft) 100,00 %
21.08.2020 15:34 30,6 C 31,1 C 28,3 C 59 % 1009,5 hPa 0,0 l/m 0 min 0 min 258 W/m 16,1 km/h (3 Bft) 97,87 %
21.08.2020 15:36 30,6 C 30,0 C 28,3 C 59 % 1009,6 hPa 0,0 l/m 0 min 0 min 214 W/m 16,1 km/h (3 Bft) 95,65 %
21.08.2020 15:38 30,5 C 30,0 C 27,8 C 59 % 1009,6 hPa 0,0 l/m 0 min 0 min 175 W/m 9,7 km/h (2 Bft) 97,87 %
21.08.2020 15:40 30,4 C 29,4 C 27,8 C 59 % 1009,6 hPa 0,0 l/m 0 min 0 min 153 W/m 16,1 km/h (3 Bft) 97,87 %
21.08.2020 15:42 30,4 C 28,9 C 27,8 C 58 % 1009,6 hPa 0,0 l/m 0 min 0 min 124 W/m 22,5 km/h (4 Bft) 97,87 %
21.08.2020 15:44 30,3 C 28,9 C 27,8 C 58 % 1009,4 hPa 0,0 l/m 0 min 0 min 122 W/m 19,3 km/h (3 Bft) 97,87 %
21.08.2020 15:46 30,3 C 28,9 C 27,8 C 60 % 1009,4 hPa 0,0 l/m 0 min 0 min 119 W/m 12,9 km/h (3 Bft) 93,62 %
21.08.2020 15:48 30,2 C 28,3 C 27,2 C 60 % 1009,5 hPa 0,0 l/m 0 min 0 min 107 W/m 3,2 km/h (1 Bft) 95,65 %
21.08.2020 15:50 30,1 C 28,3 C 27,2 C 60 % 1009,5 hPa 0,0 l/m 0 min 0 min 114 W/m 3,2 km/h (1 Bft) 95,74 %
21.08.2020 15:52 30,1 C 28,9 C 27,2 C 60 % 1009,5 hPa 0,0 l/m 0 min 0 min 126 W/m 0,0 km/h (0 Bft) 95,74 %
21.08.2020 15:54 30,0 C 28,9 C 27,2 C 60 % 1009,4 hPa 0,0 l/m 0 min 0 min 115 W/m 9,7 km/h (2 Bft) 93,62 %
21.08.2020 15:56 29,9 C 28,9 C 27,2 C 60 % 1009,4 hPa 0,0 l/m 0 min 0 min 120 W/m 12,9 km/h (3 Bft) 95,74 %
21.08.2020 15:58 29,9 C 28,9 C 27,2 C 60 % 1009,3 hPa 0,0 l/m 0 min 0 min 123 W/m 12,9 km/h (3 Bft) 95,65 %
21.08.2020 16:00 29,8 C 28,9 C 27,2 C 61 % 1009,3 hPa 0,0 l/m 0 min 0 min 114 W/m 12,9 km/h (3 Bft) 97,87 %
21.08.2020 16:02 29,7 C 28,3 C 27,2 C 60 % 1009,3 hPa 0,0 l/m 0 min 2 min 102 W/m 22,5 km/h (4 Bft) 97,87 %
21.08.2020 16:04 29,7 C 28,3 C 27,2 C 61 % 1009,3 hPa 0,0 l/m 0 min 0 min 98 W/m 16,1 km/h (3 Bft) 97,87 %
21.08.2020 16:06 29,6 C 28,3 C 26,7 C 62 % 1009,3 hPa 0,0 l/m 0 min 0 min 79 W/m 12,9 km/h (3 Bft) 93,62 %
21.08.2020 16:08 29,6 C 28,3 C 26,7 C 62 % 1009,3 hPa 0,0 l/m 0 min 0 min 64 W/m 0,0 km/h (0 Bft) 95,74 %
21.08.2020 16:10 29,5 C 27,8 C 26,7 C 62 % 1009,3 hPa 0,0 l/m 0 min 0 min 62 W/m 3,2 km/h (1 Bft) 95,74 %
21.08.2020 16:12 29,4 C 27,8 C 26,7 C 62 % 1009,4 hPa 0,0 l/m 0 min 0 min 59 W/m 3,2 km/h (1 Bft) 95,65 %
21.08.2020 16:14 29,4 C 27,8 C 26,7 C 62 % 1009,5 hPa 0,0 l/m 0 min 0 min 56 W/m 3,2 km/h (1 Bft) 95,74 %
21.08.2020 16:16 29,3 C 27,8 C 26,7 C 63 % 1009,8 hPa 0,0 l/m 0 min 0 min 56 W/m 12,9 km/h (3 Bft) 95,74 %
21.08.2020 16:18 29,2 C 27,8 C 26,7 C 64 % 1009,8 hPa 0,0 l/m 0 min 0 min 99 W/m 3,2 km/h (1 Bft) 97,87 %
21.08.2020 16:20 29,1 C 27,2 C 26,1 C 66 % 1009,8 hPa 0,0 l/m 0 min 0 min 171 W/m 19,3 km/h (3 Bft) 95,74 %
21.08.2020 16:22 28,9 C 27,2 C 26,1 C 67 % 1009,7 hPa 0,0 l/m 0 min 0 min 201 W/m 3,2 km/h (1 Bft) 95,74 %
21.08.2020 16:24 28,8 C 27,2 C 26,1 C 68 % 1009,7 hPa 0,0 l/m 0 min 0 min 211 W/m 0,0 km/h (0 Bft) 97,83 %
21.08.2020 16:26 28,7 C 27,2 C 25,6 C 68 % 1009,7 hPa 0,0 l/m 0 min 0 min 210 W/m 0,0 km/h (0 Bft) 97,87 %
21.08.2020 16:28 28,5 C 27,2 C 25,6 C 69 % 1009,8 hPa 0,0 l/m 0 min 0 min 205 W/m 0,0 km/h (0 Bft) 95,74 %
21.08.2020 16:30 28,3 C 27,2 C 25,6 C 70 % 1009,7 hPa 0,0 l/m 0 min 0 min 225 W/m 6,4 km/h (2 Bft) 97,87 %
21.08.2020 16:32 28,2 C 27,2 C 25,6 C 70 % 1009,7 hPa 0,0 l/m 2 min 0 min 301 W/m 6,4 km/h (2 Bft) 97,87 %
21.08.2020 16:34 28,1 C 28,9 C 26,1 C 71 % 1009,6 hPa 0,0 l/m 2 min 0 min 352 W/m 0,0 km/h (0 Bft) 97,83 %
21.08.2020 16:36 28,1 C 30,0 C 26,1 C 72 % 1009,7 hPa 0,0 l/m 2 min 0 min 432 W/m 0,0 km/h (0 Bft) 97,87 %
21.08.2020 16:38 28,1 C 31,7 C 26,7 C 72 % 1009,6 hPa 0,0 l/m 2 min 0 min 651 W/m 3,2 km/h (1 Bft) 97,87 %
21.08.2020 16:40 28,2 C 31,7 C 26,7 C 71 % 1009,6 hPa 0,0 l/m 2 min 0 min 682 W/m 6,4 km/h (2 Bft) 97,87 %
21.08.2020 16:42 28,2 C 31,7 C 26,7 C 71 % 1009,6 hPa 0,0 l/m 2 min 0 min 644 W/m 0,0 km/h (0 Bft) 97,87 %
21.08.2020 16:44 28,3 C 31,7 C 26,7 C 72 % 1009,6 hPa 0,0 l/m 2 min 0 min 678 W/m 0,0 km/h (0 Bft) 97,87 %
21.08.2020 16:46 28,3 C 31,7 C 26,7 C 72 % 1009,6 hPa 0,0 l/m 2 min 0 min 671 W/m 6,4 km/h (2 Bft) 97,83 %
21.08.2020 16:48 28,4 C 32,8 C 27,2 C 72 % 1009,5 hPa 0,0 l/m 2 min 0 min 643 W/m 3,2 km/h (1 Bft) 95,74 %
21.08.2020 16:50 28,5 C 32,8 C 27,2 C 71 % 1009,5 hPa 0,0 l/m 2 min 0 min 623 W/m 9,7 km/h (2 Bft) 97,87 %
21.08.2020 16:52 28,6 C 32,8 C 27,2 C 69 % 1009,4 hPa 0,0 l/m 2 min 0 min 613 W/m 12,9 km/h (3 Bft) 97,87 %
21.08.2020 16:54 28,7 C 33,3 C 27,8 C 69 % 1009,4 hPa 0,0 l/m 2 min 0 min 606 W/m 12,9 km/h (3 Bft) 97,87 %
21.08.2020 16:56 28,8 C 33,3 C 28,3 C 67 % 1009,4 hPa 0,0 l/m 2 min 0 min 607 W/m 16,1 km/h (3 Bft) 97,87 %
21.08.2020 16:58 29,0 C 33,3 C 28,3 C 66 % 1009,4 hPa 0,0 l/m 2 min 0 min 613 W/m 16,1 km/h (3 Bft) 97,83 %
21.08.2020 17:00 29,1 C 32,8 C 28,3 C 66 % 1009,4 hPa 0,0 l/m 2 min 0 min 606 W/m 16,1 km/h (3 Bft) 95,74 %
21.08.2020 17:02 29,3 C 33,9 C 28,3 C 65 % 1009,3 hPa 0,0 l/m 2 min 0 min 598 W/m 16,1 km/h (3 Bft) 97,87 %
21.08.2020 17:04 29,4 C 33,3 C 28,3 C 65 % 1009,3 hPa 0,0 l/m 2 min 0 min 613 W/m 16,1 km/h (3 Bft) 97,87 %
21.08.2020 17:06 29,6 C 32,8 C 27,8 C 65 % 1009,4 hPa 0,0 l/m 2 min 0 min 617 W/m 12,9 km/h (3 Bft) 100,00 %
21.08.2020 17:08 29,7 C 32,2 C 28,3 C 64 % 1009,4 hPa 0,0 l/m 2 min 0 min 371 W/m 12,9 km/h (3 Bft) 100,00 %
21.08.2020 17:10 29,7 C 30,6 C 27,8 C 63 % 1009,4 hPa 0,0 l/m 0 min 0 min 144 W/m 16,1 km/h (3 Bft) 100,00 %
21.08.2020 17:12 29,8 C 30,0 C 27,8 C 61 % 1009,4 hPa 0,0 l/m 0 min 0 min 150 W/m 16,1 km/h (3 Bft) 100,00 %
21.08.2020 17:14 29,8 C 29,4 C 27,8 C 60 % 1009,5 hPa 0,0 l/m 0 min 0 min 141 W/m 32,2 km/h (5 Bft) 100,00 %
21.08.2020 17:16 29,8 C 29,4 C 27,8 C 59 % 1009,6 hPa 0,0 l/m 0 min 0 min 156 W/m 35,4 km/h (5 Bft) 100,00 %
21.08.2020 17:18 29,8 C 29,4 C 27,8 C 59 % 1009,5 hPa 0,0 l/m 0 min 0 min 151 W/m 19,3 km/h (3 Bft) 100,00 %
21.08.2020 17:20 29,9 C 29,4 C 27,8 C 60 % 1009,4 hPa 0,0 l/m 0 min 0 min 159 W/m 16,1 km/h (3 Bft) 100,00 %
21.08.2020 17:22 29,8 C 29,4 C 27,8 C 60 % 1009,5 hPa 0,0 l/m 0 min 0 min 150 W/m 19,3 km/h (3 Bft) 100,00 %
21.08.2020 17:24 29,8 C 31,1 C 27,8 C 60 % 1009,5 hPa 0,0 l/m 2 min 0 min 302 W/m 22,5 km/h (4 Bft) 97,87 %
21.08.2020 17:26 29,9 C 30,0 C 27,8 C 59 % 1009,5 hPa 0,0 l/m 2 min 0 min 361 W/m 16,1 km/h (3 Bft) 100,00 %
21.08.2020 17:28 29,9 C 29,4 C 27,8 C 59 % 1009,5 hPa 0,0 l/m 0 min 0 min 132 W/m 22,5 km/h (4 Bft) 100,00 %
21.08.2020 17:30 29,8 C 28,9 C 27,8 C 59 % 1009,5 hPa 0,0 l/m 0 min 0 min 111 W/m 22,5 km/h (4 Bft) 97,87 %
21.08.2020 17:32 29,8 C 28,9 C 27,2 C 59 % 1009,5 hPa 0,0 l/m 0 min 0 min 85 W/m 12,9 km/h (3 Bft) 97,83 %
21.08.2020 17:34 29,7 C 28,3 C 27,2 C 59 % 1009,5 hPa 0,0 l/m 0 min 0 min 73 W/m 16,1 km/h (3 Bft) 97,87 %
21.08.2020 17:36 29,7 C 27,8 C 27,2 C 60 % 1009,5 hPa 0,0 l/m 0 min 0 min 63 W/m 12,9 km/h (3 Bft) 97,87 %
21.08.2020 17:38 29,6 C 27,8 C 26,7 C 60 % 1009,4 hPa 0,0 l/m 0 min 0 min 49 W/m 9,7 km/h (2 Bft) 97,87 %
21.08.2020 17:40 29,6 C 27,8 C 26,7 C 61 % 1009,4 hPa 0,0 l/m 0 min 0 min 37 W/m 12,9 km/h (3 Bft) 95,74 %
21.08.2020 17:42 29,4 C 27,2 C 26,7 C 60 % 1009,5 hPa 0,0 l/m 0 min 0 min 30 W/m 12,9 km/h (3 Bft) 97,87 %
21.08.2020 17:44 29,4 C 23,9 C 26,1 C 62 % 1009,6 hPa 0,0 l/m 0 min 2 min 44 W/m 3,2 km/h (1 Bft) 97,83 %
21.08.2020 17:46 29,3 C 22,2 C 24,4 C 65 % 1009,7 hPa 0,0 l/m 0 min 2 min 60 W/m 12,9 km/h (3 Bft) 97,87 %
21.08.2020 17:48 29,2 C 22,2 C 23,9 C 66 % 1009,7 hPa 0,0 l/m 0 min 2 min 68 W/m 12,9 km/h (3 Bft) 97,87 %
21.08.2020 17:50 29,1 C 23,3 C 23,3 C 65 % 1009,7 hPa 0,0 l/m 0 min 0 min 86 W/m 0,0 km/h (0 Bft) 97,87 %
21.08.2020 17:52 28,9 C 23,9 C 23,9 C 66 % 1009,7 hPa 0,0 l/m 0 min 0 min 149 W/m 6,4 km/h (2 Bft) 97,87 %
21.08.2020 17:54 28,8 C 25,0 C 24,4 C 66 % 1009,7 hPa 0,0 l/m 0 min 0 min 150 W/m 12,9 km/h (3 Bft) 97,87 %
21.08.2020 17:56 28,7 C 25,6 C 24,4 C 66 % 1009,8 hPa 0,0 l/m 0 min 0 min 137 W/m 25,7 km/h (4 Bft) 97,83 %
21.08.2020 17:58 28,6 C 25,6 C 24,4 C 66 % 1009,8 hPa 0,0 l/m 0 min 0 min 130 W/m 3,2 km/h (1 Bft) 95,74 %
21.08.2020 18:00 28,4 C 26,1 C 25,0 C 66 % 1009,8 hPa 0,0 l/m 0 min 0 min 114 W/m 16,1 km/h (3 Bft) 97,87 %
21.08.2020 18:02 28,3 C 26,1 C 25,0 C 65 % 1009,8 hPa 0,0 l/m 0 min 0 min 72 W/m 19,3 km/h (3 Bft) 97,87 %
21.08.2020 18:04 28,2 C 26,1 C 25,0 C 66 % 1009,8 hPa 0,0 l/m 0 min 0 min 39 W/m 25,7 km/h (4 Bft) 97,87 %
21.08.2020 18:08 28,1 C 26,1 C 25,0 C 66 % 1010,1 hPa 0,0 l/m 0 min 0 min 37 W/m 12,9 km/h (3 Bft) 94,62 %
21.08.2020 18:10 27,9 C 26,1 C 25,0 C 67 % 1010,1 hPa 0,0 l/m 0 min 0 min 63 W/m 35,4 km/h (5 Bft) 95,74 %
21.08.2020 18:12 27,8 C 26,1 C 24,4 C 68 % 1010,1 hPa 0,0 l/m 0 min 0 min 144 W/m 29,0 km/h (5 Bft) 93,62 %
21.08.2020 18:14 27,7 C 25,6 C 24,4 C 68 % 1010,2 hPa 0,0 l/m 0 min 0 min 152 W/m 29,0 km/h (5 Bft) 95,74 %
21.08.2020 18:16 27,6 C 25,6 C 24,4 C 69 % 1010,2 hPa 0,0 l/m 0 min 0 min 119 W/m 22,5 km/h (4 Bft) 93,62 %
21.08.2020 18:18 27,4 C 25,0 C 24,4 C 70 % 1010,1 hPa 0,0 l/m 0 min 0 min 100 W/m 22,5 km/h (4 Bft) 95,74 %
21.08.2020 18:20 27,2 C 25,0 C 23,9 C 70 % 1010,2 hPa 0,0 l/m 0 min 0 min 95 W/m 22,5 km/h (4 Bft) 95,65 %
21.08.2020 18:22 27,1 C 25,0 C 23,9 C 71 % 1010,1 hPa 0,0 l/m 0 min 0 min 107 W/m 0,0 km/h (0 Bft) 95,74 %
21.08.2020 18:24 26,9 C 25,0 C 23,9 C 72 % 1010,1 hPa 0,0 l/m 0 min 0 min 125 W/m 19,3 km/h (3 Bft) 95,74 %
21.08.2020 18:26 26,8 C 26,1 C 23,9 C 72 % 1010,2 hPa 0,0 l/m 0 min 0 min 155 W/m 6,4 km/h (2 Bft) 97,87 %
21.08.2020 18:28 26,8 C 26,7 C 24,4 C 73 % 1010,2 hPa 0,0 l/m 2 min 0 min 384 W/m 6,4 km/h (2 Bft) 97,87 %
21.08.2020 18:30 26,7 C 27,2 C 24,4 C 73 % 1010,2 hPa 0,0 l/m 2 min 0 min 424 W/m 16,1 km/h (3 Bft) 95,74 %
21.08.2020 18:32 26,7 C 27,2 C 24,4 C 73 % 1010,2 hPa 0,0 l/m 2 min 0 min 391 W/m 12,9 km/h (3 Bft) 97,83 %
21.08.2020 18:34 26,7 C 27,8 C 24,4 C 73 % 1010,2 hPa 0,0 l/m 2 min 0 min 370 W/m 12,9 km/h (3 Bft) 95,74 %
21.08.2020 18:36 26,7 C 27,8 C 24,4 C 73 % 1010,1 hPa 0,0 l/m 2 min 0 min 352 W/m 25,7 km/h (4 Bft) 97,87 %
21.08.2020 18:38 26,7 C 27,8 C 24,4 C 73 % 1010,1 hPa 0,0 l/m 2 min 0 min 354 W/m 19,3 km/h (3 Bft) 95,74 %
21.08.2020 18:40 26,8 C 27,2 C 24,4 C 73 % 1010,0 hPa 0,0 l/m 2 min 0 min 290 W/m 19,3 km/h (3 Bft) 97,87 %
21.08.2020 18:42 26,8 C 27,2 C 25,0 C 73 % 1010,0 hPa 0,0 l/m 2 min 0 min 324 W/m 16,1 km/h (3 Bft) 97,87 %
21.08.2020 18:44 26,8 C 27,2 C 25,0 C 73 % 1010,0 hPa 0,0 l/m 2 min 0 min 369 W/m 9,7 km/h (2 Bft) 95,65 %
21.08.2020 18:46 26,9 C 27,2 C 25,0 C 72 % 1010,1 hPa 0,0 l/m 2 min 0 min 204 W/m 29,0 km/h (5 Bft) 95,74 %
21.08.2020 18:48 26,9 C 26,7 C 25,0 C 71 % 1010,1 hPa 0,0 l/m 0 min 0 min 137 W/m 25,7 km/h (4 Bft) 100,00 %
21.08.2020 18:50 27,0 C 26,7 C 25,6 C 71 % 1010,0 hPa 0,0 l/m 0 min 0 min 114 W/m 22,5 km/h (4 Bft) 97,87 %
21.08.2020 18:52 27,1 C 27,2 C 25,6 C 71 % 1010,0 hPa 0,0 l/m 0 min 0 min 100 W/m 22,5 km/h (4 Bft) 100,00 %
21.08.2020 18:54 27,1 C 26,7 C 25,6 C 70 % 1010,2 hPa 0,0 l/m 0 min 0 min 72 W/m 32,2 km/h (5 Bft) 100,00 %
21.08.2020 18:56 27,1 C 26,7 C 25,6 C 70 % 1010,2 hPa 0,0 l/m 0 min 0 min 57 W/m 19,3 km/h (3 Bft) 97,83 %
21.08.2020 18:58 27,2 C 26,7 C 25,6 C 70 % 1010,0 hPa 0,0 l/m 0 min 0 min 56 W/m 25,7 km/h (4 Bft) 100,00 %
21.08.2020 19:00 27,2 C 26,7 C 25,6 C 70 % 1010,0 hPa 0,0 l/m 0 min 0 min 50 W/m 29,0 km/h (5 Bft) 100,00 %
21.08.2020 19:02 27,2 C 26,1 C 25,0 C 70 % 1010,0 hPa 0,0 l/m 0 min 0 min 45 W/m 25,7 km/h (4 Bft) 97,92 %
21.08.2020 19:04 27,2 C 26,1 C 25,0 C 70 % 1010,0 hPa 0,0 l/m 0 min 0 min 42 W/m 19,3 km/h (3 Bft) 100,00 %
21.08.2020 19:06 27,2 C 26,1 C 25,0 C 70 % 1010,0 hPa 0,0 l/m 0 min 0 min 32 W/m 25,7 km/h (4 Bft) 100,00 %
21.08.2020 19:08 27,2 C 26,1 C 25,0 C 70 % 1010,0 hPa 0,0 l/m 0 min 0 min 33 W/m 12,9 km/h (3 Bft) 97,87 %
21.08.2020 19:10 27,2 C 26,1 C 25,0 C 70 % 1009,9 hPa 0,0 l/m 0 min 0 min 36 W/m 3,2 km/h (1 Bft) 97,87 %
21.08.2020 19:12 27,2 C 26,1 C 25,0 C 70 % 1009,9 hPa 0,0 l/m 0 min 0 min 37 W/m 0,0 km/h (0 Bft) 97,87 %
21.08.2020 19:14 27,2 C 26,1 C 25,0 C 70 % 1009,9 hPa 0,0 l/m 0 min 0 min 34 W/m 3,2 km/h (1 Bft) 100,00 %
21.08.2020 19:16 27,2 C 26,1 C 25,0 C 70 % 1010,0 hPa 0,0 l/m 0 min 0 min 36 W/m 0,0 km/h (0 Bft) 100,00 %
21.08.2020 19:18 27,2 C 26,1 C 25,0 C 71 % 1010,0 hPa 0,0 l/m 0 min 0 min 37 W/m 0,0 km/h (0 Bft) 97,87 %
21.08.2020 19:20 27,2 C 26,1 C 25,0 C 71 % 1009,9 hPa 0,0 l/m 0 min 0 min 37 W/m 19,3 km/h (3 Bft) 97,87 %
21.08.2020 19:22 27,2 C 26,1 C 24,4 C 71 % 1010,0 hPa 0,0 l/m 0 min 0 min 35 W/m 6,4 km/h (2 Bft) 97,87 %
21.08.2020 19:24 27,2 C 26,1 C 25,0 C 71 % 1010,0 hPa 0,0 l/m 0 min 0 min 33 W/m 16,1 km/h (3 Bft) 95,74 %
21.08.2020 19:26 27,1 C 26,1 C 25,0 C 70 % 1010,1 hPa 0,0 l/m 0 min 0 min 33 W/m 16,1 km/h (3 Bft) 95,65 %
21.08.2020 19:28 27,1 C 26,1 C 24,4 C 70 % 1010,1 hPa 0,0 l/m 0 min 0 min 35 W/m 19,3 km/h (3 Bft) 97,87 %
21.08.2020 19:30 27,1 C 26,1 C 24,4 C 70 % 1010,1 hPa 0,0 l/m 0 min 0 min 35 W/m 16,1 km/h (3 Bft) 95,74 %
21.08.2020 19:32 27,1 C 26,1 C 25,0 C 70 % 1010,1 hPa 0,0 l/m 0 min 0 min 33 W/m 3,2 km/h (1 Bft) 97,87 %
21.08.2020 19:34 27,1 C 26,1 C 25,0 C 70 % 1010,1 hPa 0,0 l/m 0 min 0 min 30 W/m 12,9 km/h (3 Bft) 95,74 %
21.08.2020 19:36 27,1 C 25,6 C 24,4 C 71 % 1010,1 hPa 0,0 l/m 0 min 0 min 28 W/m 0,0 km/h (0 Bft) 97,87 %
21.08.2020 19:38 27,1 C 25,6 C 24,4 C 71 % 1010,1 hPa 0,0 l/m 0 min 0 min 26 W/m 9,7 km/h (2 Bft) 97,83 %
21.08.2020 19:40 27,0 C 25,6 C 24,4 C 71 % 1010,1 hPa 0,0 l/m 0 min 0 min 26 W/m 3,2 km/h (1 Bft) 97,87 %
21.08.2020 19:42 26,9 C 25,6 C 24,4 C 71 % 1010,0 hPa 0,0 l/m 0 min 0 min 26 W/m 3,2 km/h (1 Bft) 97,87 %
21.08.2020 19:44 26,9 C 25,6 C 24,4 C 70 % 1010,1 hPa 0,0 l/m 0 min 0 min 26 W/m 16,1 km/h (3 Bft) 97,87 %
21.08.2020 19:46 26,9 C 25,6 C 24,4 C 70 % 1010,1 hPa 0,0 l/m 0 min 0 min 23 W/m 19,3 km/h (3 Bft) 97,87 %
21.08.2020 19:48 26,9 C 25,6 C 24,4 C 70 % 1010,0 hPa 0,0 l/m 0 min 0 min 23 W/m 19,3 km/h (3 Bft) 97,87 %
21.08.2020 19:50 26,8 C 25,6 C 24,4 C 70 % 1010,1 hPa 0,0 l/m 0 min 0 min 21 W/m 16,1 km/h (3 Bft) 93,48 %
21.08.2020 19:52 26,8 C 25,6 C 24,4 C 70 % 1010,0 hPa 0,0 l/m 0 min 0 min 20 W/m 0,0 km/h (0 Bft) 95,74 %
21.08.2020 19:54 26,8 C 25,6 C 24,4 C 70 % 1010,1 hPa 0,0 l/m 0 min 0 min 19 W/m 0,0 km/h (0 Bft) 97,87 %
21.08.2020 19:56 26,8 C 25,6 C 24,4 C 70 % 1010,1 hPa 0,0 l/m 0 min 0 min 19 W/m 6,4 km/h (2 Bft) 97,87 %
21.08.2020 19:58 26,7 C 25,6 C 24,4 C 70 % 1010,1 hPa 0,0 l/m 0 min 0 min 19 W/m 3,2 km/h (1 Bft) 97,87 %
21.08.2020 20:00 26,7 C 25,6 C 24,4 C 69 % 1010,1 hPa 0,0 l/m 0 min 0 min 19 W/m 22,5 km/h (4 Bft) 97,87 %
21.08.2020 20:02 26,7 C 25,6 C 24,4 C 69 % 1010,2 hPa 0,0 l/m 0 min 0 min 19 W/m 0,0 km/h (0 Bft) 97,87 %
21.08.2020 20:04 26,7 C 25,6 C 24,4 C 69 % 1010,2 hPa 0,0 l/m 0 min 0 min 22 W/m 6,4 km/h (2 Bft) 97,67 %
21.08.2020 20:06 26,6 C 25,6 C 24,4 C 69 % 1010,1 hPa 0,0 l/m 0 min 0 min 23 W/m 0,0 km/h (0 Bft) 97,83 %
21.08.2020 20:08 26,6 C 25,6 C 24,4 C 69 % 1010,2 hPa 0,0 l/m 0 min 0 min 24 W/m 0,0 km/h (0 Bft) 93,62 %
21.08.2020 20:10 26,6 C 25,6 C 24,4 C 69 % 1010,3 hPa 0,0 l/m 0 min 0 min 27 W/m 19,3 km/h (3 Bft) 97,87 %
21.08.2020 20:12 26,6 C 25,6 C 24,4 C 68 % 1010,2 hPa 0,0 l/m 0 min 0 min 28 W/m 19,3 km/h (3 Bft) 97,87 %
21.08.2020 20:14 26,6 C 25,6 C 24,4 C 68 % 1010,2 hPa 0,0 l/m 0 min 0 min 26 W/m 0,0 km/h (0 Bft) 97,87 %
21.08.2020 20:16 26,5 C 25,6 C 24,4 C 68 % 1010,2 hPa 0,0 l/m 0 min 0 min 26 W/m 0,0 km/h (0 Bft) 97,87 %
21.08.2020 20:18 26,5 C 25,6 C 24,4 C 68 % 1010,2 hPa 0,0 l/m 2 min 0 min 26 W/m 12,9 km/h (3 Bft) 100,00 %
21.08.2020 20:20 26,5 C 25,6 C 24,4 C 68 % 1010,2 hPa 0,0 l/m 2 min 0 min 26 W/m 16,1 km/h (3 Bft) 100,00 %
21.08.2020 20:22 26,5 C 25,6 C 24,4 C 67 % 1010,3 hPa 0,0 l/m 2 min 0 min 25 W/m 19,3 km/h (3 Bft) 100,00 %
21.08.2020 20:24 26,4 C 25,6 C 24,4 C 67 % 1010,3 hPa 0,0 l/m 2 min 0 min 24 W/m 25,7 km/h (4 Bft) 100,00 %
21.08.2020 20:26 26,4 C 25,6 C 24,4 C 66 % 1010,2 hPa 0,0 l/m 2 min 0 min 21 W/m 16,1 km/h (3 Bft) 100,00 %
21.08.2020 20:28 26,4 C 25,6 C 24,4 C 66 % 1010,3 hPa 0,0 l/m 2 min 0 min 20 W/m 12,9 km/h (3 Bft) 100,00 %
21.08.2020 20:30 26,4 C 25,6 C 24,4 C 66 % 1010,3 hPa 0,0 l/m 0 min 0 min 16 W/m 16,1 km/h (3 Bft) 100,00 %
21.08.2020 20:32 26,4 C 25,6 C 24,4 C 66 % 1010,3 hPa 0,0 l/m 0 min 0 min 14 W/m 6,4 km/h (2 Bft) 100,00 %
21.08.2020 20:34 26,4 C 25,0 C 24,4 C 66 % 1010,3 hPa 0,0 l/m 0 min 0 min 13 W/m 0,0 km/h (0 Bft) 100,00 %
21.08.2020 20:36 26,4 C 25,0 C 24,4 C 66 % 1010,4 hPa 0,0 l/m 0 min 0 min 12 W/m 12,9 km/h (3 Bft) 97,87 %
21.08.2020 20:38 26,4 C 25,0 C 24,4 C 66 % 1010,4 hPa 0,0 l/m 0 min 0 min 11 W/m 32,2 km/h (5 Bft) 95,74 %
21.08.2020 20:40 26,4 C 25,0 C 24,4 C 66 % 1010,4 hPa 0,0 l/m 0 min 0 min 9 W/m 16,1 km/h (3 Bft) 95,65 %
21.08.2020 20:42 26,4 C 25,0 C 24,4 C 66 % 1010,4 hPa 0,0 l/m 0 min 0 min 9 W/m 19,3 km/h (3 Bft) 97,87 %
21.08.2020 20:44 26,4 C 25,0 C 24,4 C 66 % 1010,5 hPa 0,0 l/m 0 min 0 min 7 W/m 3,2 km/h (1 Bft) 93,62 %
21.08.2020 20:46 26,3 C 25,0 C 24,4 C 66 % 1010,5 hPa 0,0 l/m 0 min 0 min 6 W/m 0,0 km/h (0 Bft) 95,74 %
21.08.2020 20:48 26,3 C 25,0 C 24,4 C 66 % 1010,5 hPa 0,0 l/m 0 min 0 min 3 W/m 0,0 km/h (0 Bft) 95,74 %
21.08.2020 20:50 26,3 C 25,0 C 24,4 C 66 % 1010,5 hPa 0,0 l/m 0 min 0 min 0 W/m 0,0 km/h (0 Bft) 93,62 %
21.08.2020 20:52 26,3 C 25,0 C 23,9 C 66 % 1010,5 hPa 0,0 l/m 0 min 0 min 0 W/m 6,4 km/h (2 Bft) 91,30 %
21.08.2020 20:54 26,3 C 25,0 C 23,9 C 66 % 1010,6 hPa 0,0 l/m 0 min 0 min 0 W/m 12,9 km/h (3 Bft) 95,74 %
21.08.2020 20:56 26,2 C 25,0 C 23,9 C 66 % 1010,6 hPa 0,0 l/m 0 min 0 min 0 W/m 16,1 km/h (3 Bft) 95,74 %
21.08.2020 20:58 26,2 C 25,0 C 23,9 C 66 % 1010,7 hPa 0,0 l/m 0 min 0 min 0 W/m 6,4 km/h (2 Bft) 95,74 %
21.08.2020 21:00 26,2 C 25,0 C 23,9 C 66 % 1010,7 hPa 0,0 l/m 0 min 0 min 0 W/m 3,2 km/h (1 Bft) 93,62 %
21.08.2020 21:02 26,2 C 24,4 C 23,9 C 66 % 1010,7 hPa 0,0 l/m 0 min 0 min 0 W/m 0,0 km/h (0 Bft) 94,34 %
21.08.2020 21:04 26,2 C 24,4 C 23,9 C 66 % 1010,8 hPa 0,0 l/m 0 min 0 min 0 W/m 0,0 km/h (0 Bft) 93,62 %
21.08.2020 21:06 26,1 C 24,4 C 23,9 C 66 % 1010,8 hPa 0,0 l/m 0 min 0 min 0 W/m 3,2 km/h (1 Bft) 95,74 %
21.08.2020 21:08 26,1 C 24,4 C 23,9 C 67 % 1010,8 hPa 0,0 l/m 0 min 0 min 0 W/m 16,1 km/h (3 Bft) 95,74 %
21.08.2020 21:10 26,1 C 24,4 C 23,9 C 67 % 1010,8 hPa 0,0 l/m 0 min 0 min 0 W/m 0,0 km/h (0 Bft) 95,65 %
21.08.2020 21:12 26,0 C 24,4 C 23,9 C 67 % 1010,9 hPa 0,0 l/m 0 min 0 min 0 W/m 16,1 km/h (3 Bft) 95,74 %
21.08.2020 21:14 26,0 C 24,4 C 23,9 C 67 % 1010,8 hPa 0,0 l/m 0 min 0 min 0 W/m 0,0 km/h (0 Bft) 95,74 %
21.08.2020 21:16 25,9 C 24,4 C 23,3 C 67 % 1010,8 hPa 0,0 l/m 0 min 0 min 0 W/m 0,0 km/h (0 Bft) 95,74 %
21.08.2020 21:18 25,9 C 23,9 C 23,3 C 67 % 1010,9 hPa 0,0 l/m 0 min 0 min 0 W/m 6,4 km/h (2 Bft) 95,74 %
21.08.2020 21:20 25,9 C 23,9 C 23,3 C 67 % 1010,9 hPa 0,0 l/m 0 min 0 min 0 W/m 0,0 km/h (0 Bft) 95,74 %
21.08.2020 21:22 25,8 C 23,9 C 23,3 C 67 % 1011,0 hPa 0,0 l/m 0 min 0 min 0 W/m 0,0 km/h (0 Bft) 97,83 %
21.08.2020 21:24 25,8 C 23,9 C 23,3 C 67 % 1010,9 hPa 0,0 l/m 0 min 0 min 0 W/m 0,0 km/h (0 Bft) 95,74 %
21.08.2020 21:26 25,8 C 23,9 C 23,3 C 67 % 1010,9 hPa 0,0 l/m 0 min 0 min 0 W/m 0,0 km/h (0 Bft) 97,87 %
21.08.2020 21:28 25,8 C 23,9 C 23,3 C 67 % 1010,9 hPa 0,0 l/m 0 min 0 min 0 W/m 0,0 km/h (0 Bft) 95,74 %
21.08.2020 21:30 25,7 C 23,9 C 23,3 C 68 % 1010,9 hPa 0,0 l/m 0 min 0 min 0 W/m 0,0 km/h (0 Bft) 95,74 %
21.08.2020 21:32 25,7 C 23,9 C 22,8 C 68 % 1011,0 hPa 0,0 l/m 0 min 0 min 0 W/m 0,0 km/h (0 Bft) 97,87 %
21.08.2020 21:34 25,7 C 23,9 C 22,8 C 68 % 1011,0 hPa 0,0 l/m 0 min 0 min 0 W/m 0,0 km/h (0 Bft) 97,83 %
21.08.2020 21:36 25,6 C 23,3 C 22,8 C 68 % 1011,0 hPa 0,0 l/m 0 min 0 min 0 W/m 0,0 km/h (0 Bft) 97,87 %
21.08.2020 21:38 25,6 C 23,3 C 22,8 C 68 % 1011,0 hPa 0,0 l/m 0 min 0 min 0 W/m 0,0 km/h (0 Bft) 97,87 %
21.08.2020 21:40 25,6 C 23,3 C 22,8 C 68 % 1011,1 hPa 0,0 l/m 0 min 0 min 0 W/m 0,0 km/h (0 Bft) 95,74 %
21.08.2020 21:42 25,5 C 23,3 C 22,8 C 68 % 1011,0 hPa 0,0 l/m 0 min 0 min 0 W/m 0,0 km/h (0 Bft) 100,00 %
21.08.2020 21:44 25,4 C 23,3 C 22,8 C 69 % 1011,1 hPa 0,0 l/m 0 min 0 min 0 W/m 0,0 km/h (0 Bft) 100,00 %
21.08.2020 21:46 25,4 C 23,3 C 22,8 C 69 % 1011,0 hPa 0,0 l/m 0 min 0 min 0 W/m 0,0 km/h (0 Bft) 100,00 %
21.08.2020 21:48 25,4 C 23,3 C 22,8 C 69 % 1011,1 hPa 0,0 l/m 0 min 0 min 0 W/m 0,0 km/h (0 Bft) 100,00 %
21.08.2020 21:50 25,3 C 23,3 C 22,8 C 69 % 1011,1 hPa 0,0 l/m 0 min 0 min 0 W/m 0,0 km/h (0 Bft) 97,92 %
21.08.2020 21:52 25,3 C 23,3 C 22,8 C 70 % 1011,1 hPa 0,0 l/m 0 min 0 min 0 W/m 0,0 km/h (0 Bft) 100,00 %
21.08.2020 21:54 25,2 C 23,3 C 22,8 C 70 % 1011,1 hPa 0,0 l/m 0 min 0 min 0 W/m 0,0 km/h (0 Bft) 100,00 %
21.08.2020 21:56 25,2 C 23,3 C 22,2 C 70 % 1011,1 hPa 0,0 l/m 0 min 0 min 0 W/m 0,0 km/h (0 Bft) 100,00 %
21.08.2020 21:58 25,2 C 23,3 C 22,2 C 70 % 1011,1 hPa 0,0 l/m 0 min 0 min 0 W/m 0,0 km/h (0 Bft) 100,00 %
21.08.2020 22:00 25,2 C 22,8 C 22,2 C 70 % 1011,1 hPa 0,0 l/m 0 min 0 min 0 W/m 0,0 km/h (0 Bft) 100,00 %
21.08.2020 22:02 25,1 C 22,8 C 22,2 C 70 % 1011,1 hPa 0,0 l/m 0 min 0 min 0 W/m 0,0 km/h (0 Bft) 100,00 %
21.08.2020 22:04 25,1 C 22,8 C 22,2 C 71 % 1011,1 hPa 0,0 l/m 0 min 0 min 0 W/m 0,0 km/h (0 Bft) 97,87 %
21.08.2020 22:06 25,0 C 22,8 C 22,2 C 71 % 1011,3 hPa 0,0 l/m 0 min 0 min 0 W/m 0,0 km/h (0 Bft) 100,00 %
21.08.2020 22:08 24,9 C 23,3 C 22,2 C 71 % 1011,2 hPa 0,0 l/m 0 min 0 min 0 W/m 0,0 km/h (0 Bft) 100,00 %
21.08.2020 22:10 24,9 C 23,3 C 22,8 C 71 % 1011,2 hPa 0,0 l/m 0 min 0 min 0 W/m 0,0 km/h (0 Bft) 100,00 %
21.08.2020 22:12 24,8 C 22,8 C 22,8 C 71 % 1011,2 hPa 0,0 l/m 0 min 0 min 0 W/m 0,0 km/h (0 Bft) 97,37 %
21.08.2020 22:14 24,8 C 23,3 C 22,8 C 71 % 1011,2 hPa 0,0 l/m 0 min 0 min 0 W/m 0,0 km/h (0 Bft) 100,00 %
21.08.2020 22:16 24,7 C 22,8 C 22,8 C 72 % 1011,2 hPa 0,0 l/m 0 min 0 min 0 W/m 0,0 km/h (0 Bft) 97,92 %
21.08.2020 22:18 24,7 C 22,8 C 22,8 C 72 % 1011,2 hPa 0,0 l/m 0 min 0 min 0 W/m 3,2 km/h (1 Bft) 97,87 %
21.08.2020 22:20 24,6 C 22,8 C 22,8 C 72 % 1011,2 hPa 0,0 l/m 0 min 0 min 0 W/m 0,0 km/h (0 Bft) 100,00 %
21.08.2020 22:22 24,6 C 22,8 C 22,2 C 72 % 1011,2 hPa 0,0 l/m 0 min 0 min 0 W/m 0,0 km/h (0 Bft) 97,37 %
21.08.2020 22:24 24,6 C 22,8 C 22,8 C 72 % 1011,2 hPa 0,0 l/m 0 min 0 min 0 W/m 6,4 km/h (2 Bft) 97,92 %
21.08.2020 22:26 24,5 C 22,8 C 22,2 C 72 % 1011,1 hPa 0,0 l/m 0 min 0 min 0 W/m 0,0 km/h (0 Bft) 97,83 %
21.08.2020 22:28 24,5 C 22,8 C 22,2 C 72 % 1011,2 hPa 0,0 l/m 0 min 0 min 0 W/m 0,0 km/h (0 Bft) 100,00 %
21.08.2020 22:30 24,4 C 22,8 C 22,2 C 72 % 1011,1 hPa 0,0 l/m 0 min 0 min 0 W/m 0,0 km/h (0 Bft) 100,00 %
21.08.2020 22:32 24,4 C 22,8 C 22,2 C 72 % 1011,2 hPa 0,0 l/m 0 min 0 min 0 W/m 0,0 km/h (0 Bft) 97,44 %
21.08.2020 22:34 24,4 C 22,8 C 22,2 C 73 % 1011,2 hPa 0,0 l/m 0 min 0 min 0 W/m 0,0 km/h (0 Bft) 95,74 %
21.08.2020 22:36 24,3 C 22,8 C 22,2 C 73 % 1011,2 hPa 0,0 l/m 0 min 0 min 0 W/m 3,2 km/h (1 Bft) 97,87 %
21.08.2020 22:38 24,3 C 22,8 C 22,2 C 73 % 1011,2 hPa 0,0 l/m 0 min 0 min 0 W/m 0,0 km/h (0 Bft) 97,83 %
21.08.2020 22:40 24,3 C 22,8 C 22,2 C 73 % 1011,3 hPa 0,0 l/m 0 min 0 min 0 W/m 0,0 km/h (0 Bft) 97,87 %
21.08.2020 22:42 24,3 C 22,8 C 22,2 C 73 % 1011,3 hPa 0,0 l/m 0 min 0 min 0 W/m 0,0 km/h (0 Bft) 97,87 %
21.08.2020 22:44 24,2 C 22,8 C 22,2 C 73 % 1011,3 hPa 0,0 l/m 0 min 0 min 0 W/m 0,0 km/h (0 Bft) 98,18 %
21.08.2020 22:46 24,2 C 22,8 C 22,2 C 74 % 1011,3 hPa 0,0 l/m 0 min 0 min 0 W/m 3,2 km/h (1 Bft) 97,37 %
21.08.2020 22:48 24,2 C 22,8 C 22,2 C 74 % 1011,2 hPa 0,0 l/m 0 min 0 min 0 W/m 0,0 km/h (0 Bft) 97,92 %
21.08.2020 22:50 24,2 C 22,8 C 22,2 C 74 % 1011,2 hPa 0,0 l/m 0 min 0 min 0 W/m 0,0 km/h (0 Bft) 97,83 %
21.08.2020 22:52 24,2 C 22,8 C 22,2 C 74 % 1011,2 hPa 0,0 l/m 0 min 0 min 0 W/m 0,0 km/h (0 Bft) 96,43 %
21.08.2020 22:54 24,2 C 22,8 C 22,2 C 74 % 1011,2 hPa 0,0 l/m 0 min 0 min 0 W/m 0,0 km/h (0 Bft) 97,87 %
21.08.2020 22:56 24,1 C 22,8 C 22,2 C 74 % 1011,2 hPa 0,0 l/m 0 min 0 min 0 W/m 0,0 km/h (0 Bft) 97,83 %
21.08.2020 22:58 24,1 C 22,8 C 22,2 C 74 % 1011,2 hPa 0,0 l/m 0 min 0 min 0 W/m 0,0 km/h (0 Bft) 97,87 %
21.08.2020 23:00 24,1 C 22,8 C 22,2 C 74 % 1011,2 hPa 0,0 l/m 0 min 0 min 0 W/m 0,0 km/h (0 Bft) 97,37 %
21.08.2020 23:02 24,1 C 22,8 C 22,2 C 75 % 1011,2 hPa 0,0 l/m 0 min 0 min 0 W/m 0,0 km/h (0 Bft) 97,87 %
21.08.2020 23:04 24,1 C 22,8 C 22,2 C 75 % 1011,2 hPa 0,0 l/m 0 min 0 min 0 W/m 0,0 km/h (0 Bft) 95,74 %
21.08.2020 23:06 24,1 C 22,8 C 22,2 C 75 % 1011,2 hPa 0,0 l/m 0 min 0 min 0 W/m 0,0 km/h (0 Bft) 97,87 %
21.08.2020 23:08 24,1 C 22,8 C 22,2 C 75 % 1011,2 hPa 0,0 l/m 0 min 0 min 0 W/m 0,0 km/h (0 Bft) 95,74 %
21.08.2020 23:10 24,0 C 22,8 C 22,2 C 75 % 1011,2 hPa 0,0 l/m 0 min 0 min 0 W/m 0,0 km/h (0 Bft) 95,74 %
21.08.2020 23:12 24,0 C 22,8 C 22,2 C 75 % 1011,3 hPa 0,0 l/m 0 min 0 min 0 W/m 3,2 km/h (1 Bft) 95,65 %
21.08.2020 23:14 23,9 C 22,8 C 22,2 C 75 % 1011,3 hPa 0,0 l/m 0 min 0 min 0 W/m 6,4 km/h (2 Bft) 95,74 %
21.08.2020 23:16 23,9 C 22,8 C 21,7 C 76 % 1011,3 hPa 0,0 l/m 0 min 0 min 0 W/m 0,0 km/h (0 Bft) 95,74 %
21.08.2020 23:18 23,9 C 22,8 C 21,7 C 76 % 1011,3 hPa 0,0 l/m 0 min 0 min 0 W/m 0,0 km/h (0 Bft) 95,74 %
21.08.2020 23:20 23,9 C 22,2 C 21,7 C 76 % 1011,4 hPa 0,0 l/m 0 min 0 min 0 W/m 0,0 km/h (0 Bft) 95,74 %
21.08.2020 23:22 23,9 C 22,2 C 21,7 C 76 % 1011,3 hPa 0,0 l/m 0 min 0 min 0 W/m 0,0 km/h (0 Bft) 92,73 %
21.08.2020 23:24 23,8 C 22,2 C 21,7 C 76 % 1011,3 hPa 0,0 l/m 0 min 0 min 0 W/m 0,0 km/h (0 Bft) 95,74 %
21.08.2020 23:26 23,8 C 22,2 C 21,7 C 76 % 1011,3 hPa 0,0 l/m 0 min 0 min 0 W/m 0,0 km/h (0 Bft) 97,37 %
21.08.2020 23:28 23,8 C 22,2 C 21,7 C 76 % 1011,4 hPa 0,0 l/m 0 min 0 min 0 W/m 0,0 km/h (0 Bft) 95,74 %
21.08.2020 23:30 23,8 C 22,2 C 21,7 C 76 % 1011,3 hPa 0,0 l/m 0 min 0 min 0 W/m 0,0 km/h (0 Bft) 97,87 %
21.08.2020 23:32 23,8 C 22,2 C 21,7 C 77 % 1011,3 hPa 0,0 l/m 0 min 0 min 0 W/m 0,0 km/h (0 Bft) 97,87 %
21.08.2020 23:34 23,7 C 22,2 C 21,7 C 76 % 1011,3 hPa 0,0 l/m 0 min 0 min 0 W/m 0,0 km/h (0 Bft) 97,87 %
21.08.2020 23:36 23,7 C 22,2 C 21,7 C 77 % 1011,3 hPa 0,0 l/m 0 min 0 min 0 W/m 0,0 km/h (0 Bft) 98,18 %
21.08.2020 23:38 23,7 C 22,2 C 21,7 C 77 % 1011,4 hPa 0,0 l/m 0 min 0 min 0 W/m 0,0 km/h (0 Bft) 97,87 %
21.08.2020 23:40 23,7 C 22,2 C 21,7 C 77 % 1011,4 hPa 0,0 l/m 0 min 0 min 0 W/m 0,0 km/h (0 Bft) 95,74 %
21.08.2020 23:42 23,6 C 22,2 C 21,7 C 77 % 1011,4 hPa 0,0 l/m 0 min 0 min 0 W/m 0,0 km/h (0 Bft) 100,00 %
21.08.2020 23:44 23,6 C 22,2 C 21,7 C 77 % 1011,6 hPa 0,0 l/m 0 min 0 min 0 W/m 12,9 km/h (3 Bft) 95,65 %
21.08.2020 23:46 23,6 C 22,2 C 21,7 C 77 % 1011,5 hPa 0,0 l/m 0 min 0 min 0 W/m 0,0 km/h (0 Bft) 97,87 %
21.08.2020 23:48 23,6 C 22,2 C 21,7 C 77 % 1011,5 hPa 0,0 l/m 0 min 0 min 0 W/m 0,0 km/h (0 Bft) 97,87 %
21.08.2020 23:50 23,6 C 22,2 C 21,7 C 77 % 1011,5 hPa 0,0 l/m 0 min 0 min 0 W/m 0,0 km/h (0 Bft) 98,00 %
21.08.2020 23:52 23,6 C 22,2 C 21,7 C 78 % 1011,6 hPa 0,0 l/m 0 min 0 min 0 W/m 0,0 km/h (0 Bft) 97,87 %
21.08.2020 23:54 23,5 C 22,2 C 21,7 C 78 % 1011,6 hPa 0,0 l/m 0 min 0 min 0 W/m 6,4 km/h (2 Bft) 97,87 %
21.08.2020 23:56 23,5 C 22,2 C 21,7 C 78 % 1011,5 hPa 0,0 l/m 0 min 0 min 0 W/m 3,2 km/h (1 Bft) 97,87 %
21.08.2020 23:58 23,4 C 22,2 C 21,7 C 78 % 1011,5 hPa 0,0 l/m 0 min 0 min 0 W/m 0,0 km/h (0 Bft) 100,00 %
_ Min-Zeit 06:02 03:32 03:18 15:42 05:40 - - - - 00:00 08:02
Minimum _ 22,0 C 19,4 C 19,4 C 58 % 1004,9 hPa - - - - 0,0 km/h (0 Bft) 87,23 %
_ Max-Zeit 15:32 13:08 13:30 05:42 23:44 02:50 12:08 02:50 13:26 03:32 00:14
Maximum _ 30,6 C 36,1 C 28,9 C 92 % 1011,6 hPa 0,2 l/m 4 min 2 min 1021 W/m 35,4 km/h
O-NO (5 Bft)
100,00 %
Durchschnitt _ 25,5 C 24,8 C 23,1 C 75 % 1008,6 hPa #1,8 l/m #3:52 h #2:18 h 233 W/m 6,7 km/h (2 Bft) 97,53 %
© 2020 W. Hausmann